Wetterdaten: Dienstag, 05.10.2021
Datum Zeit Temp. Aussen Temp. o. S. Temp +5cm Feuchte Auss Luftdruck Regen Sonnenschein Regendauer Solar Windben Empfang
05.10.2021 00:00 11,2 C 10,6 C 8,9 C 85 % 1015,0 hPa 0,0 l/m 0 min 0 min 0 W/m 6,4 km/h (2 Bft) 100,00 %
05.10.2021 00:02 11,1 C 10,6 C 8,9 C 85 % 1015,0 hPa 0,0 l/m 0 min 0 min 0 W/m 6,4 km/h (2 Bft) 97,14 %
05.10.2021 00:04 11,1 C 10,6 C 8,9 C 85 % 1015,0 hPa 0,0 l/m 0 min 0 min 0 W/m 6,4 km/h (2 Bft) 100,00 %
05.10.2021 00:07 11,1 C 10,6 C 8,9 C 85 % 1014,9 hPa 0,0 l/m 0 min 0 min 0 W/m 6,4 km/h (2 Bft) 98,78 %
05.10.2021 00:08 11,1 C 10,6 C 8,9 C 85 % 1014,9 hPa 0,0 l/m 0 min 0 min 0 W/m 3,2 km/h (1 Bft) 100,00 %
05.10.2021 00:10 11,1 C 10,0 C 8,9 C 85 % 1014,9 hPa 0,0 l/m 0 min 0 min 0 W/m 6,4 km/h (2 Bft) 97,83 %
05.10.2021 00:12 11,1 C 10,0 C 8,9 C 85 % 1014,9 hPa 0,0 l/m 0 min 0 min 0 W/m 3,2 km/h (1 Bft) 100,00 %
05.10.2021 00:14 11,1 C 10,0 C 8,9 C 85 % 1014,9 hPa 0,0 l/m 0 min 0 min 0 W/m 3,2 km/h (1 Bft) 97,87 %
05.10.2021 00:16 11,0 C 10,0 C 8,9 C 86 % 1014,9 hPa 0,0 l/m 0 min 0 min 0 W/m 6,4 km/h (2 Bft) 100,00 %
05.10.2021 00:18 11,0 C 10,0 C 8,9 C 86 % 1014,9 hPa 0,0 l/m 0 min 0 min 0 W/m 6,4 km/h (2 Bft) 93,62 %
05.10.2021 00:20 11,0 C 10,0 C 8,9 C 86 % 1014,9 hPa 0,0 l/m 0 min 0 min 0 W/m 6,4 km/h (2 Bft) 97,87 %
05.10.2021 00:22 11,0 C 10,0 C 8,9 C 86 % 1014,8 hPa 0,0 l/m 0 min 0 min 0 W/m 12,9 km/h (3 Bft) 97,83 %
05.10.2021 00:24 11,0 C 10,0 C 8,9 C 86 % 1014,8 hPa 0,0 l/m 0 min 0 min 0 W/m 6,4 km/h (2 Bft) 97,87 %
05.10.2021 00:26 10,9 C 10,0 C 8,9 C 86 % 1014,9 hPa 0,0 l/m 0 min 0 min 0 W/m 6,4 km/h (2 Bft) 95,74 %
05.10.2021 00:28 10,9 C 10,0 C 8,9 C 86 % 1014,9 hPa 0,0 l/m 0 min 0 min 0 W/m 3,2 km/h (1 Bft) 95,74 %
05.10.2021 00:30 10,9 C 10,0 C 8,9 C 86 % 1014,8 hPa 0,0 l/m 0 min 0 min 0 W/m 3,2 km/h (1 Bft) 93,62 %
05.10.2021 00:32 10,9 C 10,0 C 8,9 C 86 % 1014,8 hPa 0,0 l/m 0 min 0 min 0 W/m 6,4 km/h (2 Bft) 95,74 %
05.10.2021 00:34 10,9 C 10,0 C 8,9 C 86 % 1014,8 hPa 0,0 l/m 0 min 0 min 0 W/m 3,2 km/h (1 Bft) 93,48 %
05.10.2021 00:36 10,9 C 10,0 C 8,9 C 86 % 1014,7 hPa 0,0 l/m 0 min 0 min 0 W/m 6,4 km/h (2 Bft) 89,36 %
05.10.2021 00:38 10,9 C 10,0 C 8,9 C 87 % 1014,8 hPa 0,0 l/m 0 min 0 min 0 W/m 6,4 km/h (2 Bft) 93,62 %
05.10.2021 00:40 10,8 C 10,0 C 8,9 C 87 % 1014,7 hPa 0,0 l/m 0 min 0 min 0 W/m 6,4 km/h (2 Bft) 95,74 %
05.10.2021 00:42 10,8 C 10,0 C 8,9 C 87 % 1014,7 hPa 0,0 l/m 0 min 0 min 0 W/m 6,4 km/h (2 Bft) 95,74 %
05.10.2021 00:44 10,8 C 10,0 C 8,9 C 87 % 1014,7 hPa 0,0 l/m 0 min 0 min 0 W/m 3,2 km/h (1 Bft) 93,48 %
05.10.2021 00:46 10,8 C 10,0 C 8,9 C 87 % 1014,7 hPa 0,0 l/m 0 min 0 min 0 W/m 12,9 km/h (3 Bft) 95,74 %
05.10.2021 00:48 10,8 C 10,0 C 8,9 C 87 % 1014,6 hPa 0,0 l/m 0 min 0 min 0 W/m 3,2 km/h (1 Bft) 95,74 %
05.10.2021 00:50 10,7 C 10,0 C 8,9 C 87 % 1014,6 hPa 0,0 l/m 0 min 0 min 0 W/m 3,2 km/h (1 Bft) 95,83 %
05.10.2021 00:52 10,7 C 10,0 C 8,9 C 87 % 1014,6 hPa 0,0 l/m 0 min 0 min 0 W/m 6,4 km/h (2 Bft) 89,36 %
05.10.2021 00:54 10,7 C 10,0 C 8,9 C 87 % 1014,6 hPa 0,0 l/m 0 min 0 min 0 W/m 6,4 km/h (2 Bft) 96,30 %
05.10.2021 00:56 10,7 C 10,0 C 8,9 C 87 % 1014,6 hPa 0,0 l/m 0 min 0 min 0 W/m 3,2 km/h (1 Bft) 95,74 %
05.10.2021 00:58 10,7 C 10,0 C 8,9 C 87 % 1014,5 hPa 0,0 l/m 0 min 0 min 0 W/m 6,4 km/h (2 Bft) 95,24 %
05.10.2021 01:00 10,7 C 10,0 C 8,9 C 88 % 1014,5 hPa 0,0 l/m 0 min 0 min 0 W/m 9,7 km/h (2 Bft) 95,74 %
05.10.2021 01:02 10,7 C 10,0 C 8,9 C 88 % 1014,5 hPa 0,0 l/m 0 min 0 min 0 W/m 12,9 km/h (3 Bft) 94,00 %
05.10.2021 01:04 10,7 C 10,0 C 8,9 C 88 % 1014,5 hPa 0,0 l/m 0 min 0 min 0 W/m 6,4 km/h (2 Bft) 95,83 %
05.10.2021 01:06 10,7 C 10,0 C 8,9 C 88 % 1014,5 hPa 0,0 l/m 0 min 0 min 0 W/m 6,4 km/h (2 Bft) 94,59 %
05.10.2021 01:08 10,7 C 10,0 C 8,9 C 88 % 1014,5 hPa 0,0 l/m 0 min 0 min 0 W/m 12,9 km/h (3 Bft) 95,65 %
05.10.2021 01:10 10,7 C 10,0 C 8,9 C 88 % 1014,5 hPa 0,0 l/m 0 min 0 min 0 W/m 6,4 km/h (2 Bft) 94,55 %
05.10.2021 01:12 10,7 C 10,0 C 8,9 C 88 % 1014,4 hPa 0,0 l/m 0 min 0 min 0 W/m 6,4 km/h (2 Bft) 95,74 %
05.10.2021 01:14 10,6 C 10,0 C 8,9 C 88 % 1014,4 hPa 0,0 l/m 0 min 0 min 0 W/m 3,2 km/h (1 Bft) 98,00 %
05.10.2021 01:16 10,6 C 10,0 C 8,9 C 88 % 1014,4 hPa 0,0 l/m 0 min 0 min 0 W/m 6,4 km/h (2 Bft) 97,83 %
05.10.2021 01:18 10,6 C 10,0 C 8,9 C 88 % 1014,3 hPa 0,0 l/m 0 min 0 min 0 W/m 3,2 km/h (1 Bft) 95,74 %
05.10.2021 01:20 10,6 C 10,0 C 8,9 C 88 % 1014,3 hPa 0,0 l/m 0 min 0 min 0 W/m 6,4 km/h (2 Bft) 100,00 %
05.10.2021 01:22 10,6 C 10,0 C 8,9 C 88 % 1014,2 hPa 0,0 l/m 0 min 0 min 0 W/m 6,4 km/h (2 Bft) 97,87 %
05.10.2021 01:24 10,6 C 10,0 C 8,9 C 88 % 1014,2 hPa 0,0 l/m 0 min 0 min 0 W/m 3,2 km/h (1 Bft) 94,55 %
05.10.2021 01:26 10,6 C 10,0 C 8,9 C 88 % 1014,2 hPa 0,0 l/m 0 min 0 min 0 W/m 6,4 km/h (2 Bft) 95,74 %
05.10.2021 01:28 10,6 C 10,0 C 8,9 C 88 % 1014,2 hPa 0,0 l/m 0 min 0 min 0 W/m 3,2 km/h (1 Bft) 97,96 %
05.10.2021 01:30 10,6 C 10,0 C 8,9 C 88 % 1014,2 hPa 0,0 l/m 0 min 0 min 0 W/m 6,4 km/h (2 Bft) 95,74 %
05.10.2021 01:32 10,6 C 10,0 C 8,9 C 88 % 1014,2 hPa 0,0 l/m 0 min 0 min 0 W/m 3,2 km/h (1 Bft) 97,87 %
05.10.2021 01:34 10,5 C 10,0 C 8,9 C 88 % 1014,2 hPa 0,0 l/m 0 min 0 min 0 W/m 3,2 km/h (1 Bft) 100,00 %
05.10.2021 01:36 10,5 C 10,0 C 8,9 C 89 % 1014,2 hPa 0,0 l/m 0 min 0 min 0 W/m 6,4 km/h (2 Bft) 100,00 %
05.10.2021 01:38 10,5 C 10,0 C 8,4 C 89 % 1014,1 hPa 0,0 l/m 0 min 0 min 0 W/m 6,4 km/h (2 Bft) 100,00 %
05.10.2021 01:40 10,5 C 10,0 C 8,4 C 88 % 1014,1 hPa 0,0 l/m 0 min 0 min 0 W/m 6,4 km/h (2 Bft) 97,87 %
05.10.2021 01:42 10,5 C 10,0 C 8,4 C 89 % 1014,1 hPa 0,0 l/m 0 min 0 min 0 W/m 6,4 km/h (2 Bft) 100,00 %
05.10.2021 01:44 10,5 C 10,0 C 8,9 C 89 % 1014,1 hPa 0,0 l/m 0 min 0 min 0 W/m 3,2 km/h (1 Bft) 100,00 %
05.10.2021 01:46 10,5 C 10,0 C 8,4 C 89 % 1014,0 hPa 0,0 l/m 0 min 0 min 0 W/m 6,4 km/h (2 Bft) 94,55 %
05.10.2021 01:48 10,5 C 10,0 C 8,4 C 89 % 1014,0 hPa 0,0 l/m 0 min 0 min 0 W/m 6,4 km/h (2 Bft) 100,00 %
05.10.2021 01:50 10,5 C 10,0 C 8,4 C 89 % 1014,0 hPa 0,0 l/m 0 min 0 min 0 W/m 6,4 km/h (2 Bft) 100,00 %
05.10.2021 01:52 10,5 C 10,0 C 8,4 C 89 % 1013,9 hPa 0,0 l/m 0 min 0 min 0 W/m 6,4 km/h (2 Bft) 97,96 %
05.10.2021 01:54 10,5 C 10,0 C 8,4 C 89 % 1013,9 hPa 0,0 l/m 0 min 0 min 0 W/m 3,2 km/h (1 Bft) 100,00 %
05.10.2021 01:56 10,4 C 10,0 C 8,4 C 89 % 1013,9 hPa 0,0 l/m 0 min 0 min 0 W/m 6,4 km/h (2 Bft) 97,87 %
05.10.2021 01:58 10,5 C 9,4 C 8,4 C 89 % 1014,0 hPa 0,0 l/m 0 min 0 min 0 W/m 6,4 km/h (2 Bft) 100,00 %
05.10.2021 02:00 10,4 C 10,0 C 8,4 C 89 % 1014,0 hPa 0,0 l/m 0 min 0 min 0 W/m 6,4 km/h (2 Bft) 100,00 %
05.10.2021 02:02 10,4 C 10,0 C 8,4 C 89 % 1014,0 hPa 0,0 l/m 0 min 0 min 0 W/m 6,4 km/h (2 Bft) 97,87 %
05.10.2021 02:04 10,4 C 10,0 C 8,4 C 89 % 1014,0 hPa 0,0 l/m 0 min 0 min 0 W/m 6,4 km/h (2 Bft) 100,00 %
05.10.2021 02:06 10,4 C 9,4 C 8,4 C 89 % 1014,0 hPa 0,0 l/m 0 min 0 min 0 W/m 6,4 km/h (2 Bft) 100,00 %
05.10.2021 02:08 10,4 C 9,4 C 8,4 C 89 % 1013,9 hPa 0,0 l/m 0 min 0 min 0 W/m 6,4 km/h (2 Bft) 97,87 %
05.10.2021 02:10 10,4 C 9,4 C 8,4 C 90 % 1013,9 hPa 0,0 l/m 0 min 0 min 0 W/m 6,4 km/h (2 Bft) 100,00 %
05.10.2021 02:12 10,4 C 9,4 C 8,4 C 90 % 1013,9 hPa 0,0 l/m 0 min 0 min 0 W/m 6,4 km/h (2 Bft) 100,00 %
05.10.2021 02:14 10,4 C 9,4 C 8,4 C 90 % 1013,8 hPa 0,0 l/m 0 min 0 min 0 W/m 9,7 km/h (2 Bft) 100,00 %
05.10.2021 02:16 10,4 C 9,4 C 8,4 C 90 % 1013,8 hPa 0,0 l/m 0 min 0 min 0 W/m 6,4 km/h (2 Bft) 97,87 %
05.10.2021 02:18 10,4 C 9,4 C 8,4 C 90 % 1013,8 hPa 0,0 l/m 0 min 0 min 0 W/m 6,4 km/h (2 Bft) 100,00 %
05.10.2021 02:20 10,4 C 9,4 C 8,4 C 90 % 1013,7 hPa 0,0 l/m 0 min 0 min 0 W/m 6,4 km/h (2 Bft) 100,00 %
05.10.2021 02:22 10,4 C 9,4 C 8,4 C 90 % 1013,6 hPa 0,0 l/m 0 min 0 min 0 W/m 6,4 km/h (2 Bft) 100,00 %
05.10.2021 02:24 10,4 C 9,4 C 8,4 C 90 % 1013,6 hPa 0,0 l/m 0 min 0 min 0 W/m 9,7 km/h (2 Bft) 94,29 %
05.10.2021 02:26 10,3 C 9,4 C 8,4 C 90 % 1013,6 hPa 0,0 l/m 0 min 0 min 0 W/m 6,4 km/h (2 Bft) 100,00 %
05.10.2021 02:28 10,3 C 9,4 C 8,4 C 90 % 1013,6 hPa 0,0 l/m 0 min 0 min 0 W/m 6,4 km/h (2 Bft) 100,00 %
05.10.2021 02:30 10,3 C 9,4 C 8,4 C 90 % 1013,5 hPa 0,0 l/m 0 min 0 min 0 W/m 12,9 km/h (3 Bft) 98,15 %
05.10.2021 02:32 10,3 C 9,4 C 8,4 C 90 % 1013,5 hPa 0,0 l/m 0 min 0 min 0 W/m 6,4 km/h (2 Bft) 97,87 %
05.10.2021 02:34 10,3 C 9,4 C 8,4 C 90 % 1013,5 hPa 0,0 l/m 0 min 0 min 0 W/m 6,4 km/h (2 Bft) 100,00 %
05.10.2021 02:36 10,3 C 9,4 C 8,4 C 90 % 1013,5 hPa 0,0 l/m 0 min 0 min 0 W/m 12,9 km/h (3 Bft) 95,74 %
05.10.2021 02:38 10,3 C 9,4 C 8,4 C 90 % 1013,5 hPa 0,0 l/m 0 min 0 min 0 W/m 16,1 km/h (3 Bft) 100,00 %
05.10.2021 02:40 10,3 C 9,4 C 8,4 C 90 % 1013,4 hPa 0,0 l/m 0 min 0 min 0 W/m 12,9 km/h (3 Bft) 100,00 %
05.10.2021 02:42 10,3 C 9,4 C 8,4 C 90 % 1013,4 hPa 0,0 l/m 0 min 0 min 0 W/m 12,9 km/h (3 Bft) 100,00 %
05.10.2021 02:44 10,3 C 9,4 C 8,4 C 90 % 1013,4 hPa 0,0 l/m 0 min 0 min 0 W/m 9,7 km/h (2 Bft) 100,00 %
05.10.2021 02:46 10,3 C 9,4 C 8,4 C 90 % 1013,4 hPa 0,0 l/m 0 min 0 min 0 W/m 16,1 km/h (3 Bft) 94,29 %
05.10.2021 02:48 10,3 C 9,4 C 8,4 C 91 % 1013,3 hPa 0,0 l/m 0 min 0 min 0 W/m 12,9 km/h (3 Bft) 97,87 %
05.10.2021 02:50 10,3 C 9,4 C 8,4 C 91 % 1013,3 hPa 0,0 l/m 0 min 0 min 0 W/m 16,1 km/h (3 Bft) 94,55 %
05.10.2021 02:52 10,3 C 9,4 C 8,4 C 91 % 1013,2 hPa 0,0 l/m 0 min 0 min 0 W/m 6,4 km/h (2 Bft) 95,65 %
05.10.2021 02:54 10,3 C 9,4 C 8,4 C 91 % 1013,2 hPa 0,0 l/m 0 min 0 min 0 W/m 12,9 km/h (3 Bft) 95,74 %
05.10.2021 02:56 10,3 C 9,4 C 8,4 C 91 % 1013,2 hPa 0,0 l/m 0 min 0 min 0 W/m 6,4 km/h (2 Bft) 94,00 %
05.10.2021 02:58 10,3 C 9,4 C 8,4 C 91 % 1013,2 hPa 0,0 l/m 0 min 0 min 0 W/m 12,9 km/h (3 Bft) 95,74 %
05.10.2021 03:00 10,3 C 9,4 C 8,4 C 91 % 1013,1 hPa 0,0 l/m 0 min 0 min 0 W/m 3,2 km/h (1 Bft) 95,74 %
05.10.2021 03:02 10,3 C 9,4 C 8,4 C 91 % 1013,0 hPa 0,0 l/m 0 min 0 min 0 W/m 12,9 km/h (3 Bft) 92,86 %
05.10.2021 03:04 10,3 C 9,4 C 8,4 C 91 % 1013,1 hPa 0,0 l/m 0 min 0 min 0 W/m 6,4 km/h (2 Bft) 95,92 %
05.10.2021 03:06 10,3 C 9,4 C 8,4 C 91 % 1013,0 hPa 0,0 l/m 0 min 0 min 0 W/m 12,9 km/h (3 Bft) 93,62 %
05.10.2021 03:08 10,3 C 9,4 C 8,4 C 91 % 1013,1 hPa 0,0 l/m 0 min 0 min 0 W/m 9,7 km/h (2 Bft) 95,35 %
05.10.2021 03:10 10,3 C 9,4 C 8,4 C 91 % 1013,0 hPa 0,0 l/m 0 min 0 min 0 W/m 6,4 km/h (2 Bft) 98,00 %
05.10.2021 03:12 10,3 C 9,4 C 8,4 C 91 % 1013,0 hPa 0,0 l/m 0 min 0 min 0 W/m 12,9 km/h (3 Bft) 93,62 %
05.10.2021 03:14 10,3 C 9,4 C 8,4 C 91 % 1013,0 hPa 0,0 l/m 0 min 0 min 0 W/m 6,4 km/h (2 Bft) 95,65 %
05.10.2021 03:16 10,3 C 9,4 C 8,4 C 91 % 1012,9 hPa 0,0 l/m 0 min 0 min 0 W/m 12,9 km/h (3 Bft) 93,62 %
05.10.2021 03:18 10,3 C 9,4 C 8,4 C 91 % 1012,9 hPa 0,0 l/m 0 min 0 min 0 W/m 12,9 km/h (3 Bft) 95,83 %
05.10.2021 03:20 10,3 C 9,4 C 8,4 C 91 % 1012,8 hPa 0,0 l/m 0 min 0 min 0 W/m 12,9 km/h (3 Bft) 97,87 %
05.10.2021 03:22 10,3 C 9,4 C 8,4 C 91 % 1012,9 hPa 0,0 l/m 0 min 0 min 0 W/m 12,9 km/h (3 Bft) 97,87 %
05.10.2021 03:24 10,3 C 9,4 C 8,4 C 91 % 1012,8 hPa 0,0 l/m 0 min 0 min 0 W/m 6,4 km/h (2 Bft) 95,35 %
05.10.2021 03:26 10,3 C 9,4 C 8,4 C 91 % 1012,8 hPa 0,0 l/m 0 min 0 min 0 W/m 12,9 km/h (3 Bft) 97,96 %
05.10.2021 03:28 10,3 C 9,4 C 8,4 C 91 % 1012,7 hPa 0,0 l/m 0 min 0 min 0 W/m 9,7 km/h (2 Bft) 97,87 %
05.10.2021 03:30 10,3 C 9,4 C 8,4 C 91 % 1012,8 hPa 0,0 l/m 0 min 0 min 0 W/m 6,4 km/h (2 Bft) 100,00 %
05.10.2021 03:32 10,3 C 9,4 C 8,4 C 91 % 1012,7 hPa 0,0 l/m 0 min 0 min 0 W/m 12,9 km/h (3 Bft) 97,87 %
05.10.2021 03:34 10,3 C 9,4 C 8,4 C 91 % 1012,8 hPa 0,0 l/m 0 min 0 min 0 W/m 12,9 km/h (3 Bft) 97,87 %
05.10.2021 03:36 10,3 C 9,4 C 8,4 C 91 % 1012,8 hPa 0,0 l/m 0 min 0 min 0 W/m 12,9 km/h (3 Bft) 97,87 %
05.10.2021 03:38 10,3 C 9,4 C 8,4 C 91 % 1012,7 hPa 0,0 l/m 0 min 0 min 0 W/m 6,4 km/h (2 Bft) 97,87 %
05.10.2021 03:40 10,2 C 9,4 C 8,4 C 91 % 1012,7 hPa 0,0 l/m 0 min 0 min 0 W/m 6,4 km/h (2 Bft) 97,87 %
05.10.2021 03:42 10,2 C 9,4 C 8,4 C 91 % 1012,6 hPa 0,0 l/m 0 min 0 min 0 W/m 12,9 km/h (3 Bft) 97,87 %
05.10.2021 03:44 10,2 C 9,4 C 8,4 C 91 % 1012,6 hPa 0,0 l/m 0 min 0 min 0 W/m 12,9 km/h (3 Bft) 95,74 %
05.10.2021 03:46 10,2 C 9,4 C 8,4 C 91 % 1012,5 hPa 0,0 l/m 0 min 0 min 0 W/m 16,1 km/h (3 Bft) 97,87 %
05.10.2021 03:48 10,2 C 9,4 C 8,4 C 91 % 1012,5 hPa 0,0 l/m 0 min 0 min 0 W/m 6,4 km/h (2 Bft) 97,83 %
05.10.2021 03:50 10,1 C 9,4 C 8,4 C 91 % 1012,5 hPa 0,0 l/m 0 min 0 min 0 W/m 16,1 km/h (3 Bft) 97,87 %
05.10.2021 03:52 10,1 C 9,4 C 8,4 C 91 % 1012,4 hPa 0,0 l/m 0 min 0 min 0 W/m 12,9 km/h (3 Bft) 97,87 %
05.10.2021 03:54 10,1 C 9,4 C 8,4 C 91 % 1012,4 hPa 0,0 l/m 0 min 0 min 0 W/m 6,4 km/h (2 Bft) 97,87 %
05.10.2021 03:56 10,1 C 9,4 C 8,4 C 91 % 1012,3 hPa 0,0 l/m 0 min 0 min 0 W/m 6,4 km/h (2 Bft) 97,87 %
05.10.2021 03:58 10,1 C 9,4 C 8,4 C 91 % 1012,3 hPa 0,0 l/m 0 min 0 min 0 W/m 6,4 km/h (2 Bft) 98,00 %
05.10.2021 04:00 10,1 C 9,4 C 8,4 C 91 % 1012,3 hPa 0,0 l/m 0 min 0 min 0 W/m 6,4 km/h (2 Bft) 97,83 %
05.10.2021 04:02 10,1 C 9,4 C 8,4 C 91 % 1012,3 hPa 0,0 l/m 0 min 0 min 0 W/m 6,4 km/h (2 Bft) 94,87 %
05.10.2021 04:04 10,1 C 9,4 C 8,4 C 91 % 1012,2 hPa 0,0 l/m 0 min 0 min 0 W/m 12,9 km/h (3 Bft) 94,74 %
05.10.2021 04:06 10,1 C 9,4 C 8,4 C 91 % 1012,1 hPa 0,0 l/m 0 min 0 min 0 W/m 3,2 km/h (1 Bft) 60,42 %
05.10.2021 04:08 10,1 C 9,4 C 8,4 C 91 % 1012,2 hPa 0,0 l/m 0 min 0 min 0 W/m 6,4 km/h (2 Bft) 91,89 %
05.10.2021 04:10 10,0 C 9,4 C 8,4 C 91 % 1012,2 hPa 0,0 l/m 0 min 0 min 0 W/m 9,7 km/h (2 Bft) 98,15 %
05.10.2021 04:12 10,0 C 9,4 C 8,4 C 91 % 1012,1 hPa 0,0 l/m 0 min 0 min 0 W/m 9,7 km/h (2 Bft) 94,74 %
05.10.2021 04:14 10,0 C 9,4 C 8,4 C 91 % 1012,1 hPa 0,0 l/m 0 min 0 min 0 W/m 6,4 km/h (2 Bft) 97,92 %
05.10.2021 04:16 10,0 C 9,4 C 8,4 C 91 % 1012,0 hPa 0,0 l/m 0 min 0 min 0 W/m 6,4 km/h (2 Bft) 97,87 %
05.10.2021 04:18 10,0 C 9,4 C 8,4 C 91 % 1011,9 hPa 0,0 l/m 0 min 0 min 0 W/m 6,4 km/h (2 Bft) 97,87 %
05.10.2021 04:20 10,0 C 9,4 C 8,4 C 91 % 1011,9 hPa 0,0 l/m 0 min 0 min 0 W/m 6,4 km/h (2 Bft) 93,62 %
05.10.2021 04:22 10,0 C 9,4 C 8,4 C 92 % 1011,9 hPa 0,0 l/m 0 min 0 min 0 W/m 9,7 km/h (2 Bft) 95,74 %
05.10.2021 04:24 10,0 C 9,4 C 8,4 C 92 % 1011,9 hPa 0,0 l/m 0 min 0 min 0 W/m 9,7 km/h (2 Bft) 97,83 %
05.10.2021 04:26 10,0 C 9,4 C 8,4 C 92 % 1011,8 hPa 0,0 l/m 0 min 0 min 0 W/m 12,9 km/h (3 Bft) 97,87 %
05.10.2021 04:28 10,0 C 9,4 C 8,4 C 92 % 1011,8 hPa 0,0 l/m 0 min 0 min 0 W/m 6,4 km/h (2 Bft) 98,18 %
05.10.2021 04:30 10,0 C 9,4 C 8,4 C 92 % 1011,8 hPa 0,0 l/m 0 min 0 min 0 W/m 6,4 km/h (2 Bft) 100,00 %
05.10.2021 04:32 10,0 C 9,4 C 8,4 C 92 % 1011,7 hPa 0,0 l/m 0 min 0 min 0 W/m 6,4 km/h (2 Bft) 100,00 %
05.10.2021 04:34 10,0 C 9,4 C 8,4 C 92 % 1011,6 hPa 0,0 l/m 0 min 0 min 0 W/m 9,7 km/h (2 Bft) 100,00 %
05.10.2021 04:36 10,0 C 9,4 C 8,4 C 92 % 1011,6 hPa 0,0 l/m 0 min 0 min 0 W/m 6,4 km/h (2 Bft) 100,00 %
05.10.2021 04:38 10,0 C 9,4 C 8,4 C 92 % 1011,6 hPa 0,0 l/m 0 min 0 min 0 W/m 6,4 km/h (2 Bft) 97,92 %
05.10.2021 04:40 10,0 C 9,4 C 8,4 C 92 % 1011,6 hPa 0,0 l/m 0 min 0 min 0 W/m 6,4 km/h (2 Bft) 97,87 %
05.10.2021 04:42 10,0 C 9,4 C 8,4 C 92 % 1011,7 hPa 0,0 l/m 0 min 0 min 0 W/m 6,4 km/h (2 Bft) 97,87 %
05.10.2021 04:44 10,0 C 9,4 C 8,4 C 92 % 1011,6 hPa 0,0 l/m 0 min 0 min 0 W/m 6,4 km/h (2 Bft) 97,87 %
05.10.2021 04:46 10,0 C 9,4 C 8,4 C 92 % 1011,6 hPa 0,0 l/m 0 min 0 min 0 W/m 12,9 km/h (3 Bft) 97,87 %
05.10.2021 04:48 10,0 C 9,4 C 8,4 C 92 % 1011,6 hPa 0,0 l/m 0 min 0 min 0 W/m 9,7 km/h (2 Bft) 95,65 %
05.10.2021 04:50 10,0 C 9,4 C 8,4 C 92 % 1011,5 hPa 0,0 l/m 0 min 0 min 0 W/m 3,2 km/h (1 Bft) 97,87 %
05.10.2021 04:52 10,0 C 9,4 C 8,4 C 92 % 1011,5 hPa 0,0 l/m 0 min 0 min 0 W/m 6,4 km/h (2 Bft) 97,87 %
05.10.2021 04:54 10,0 C 9,4 C 8,4 C 92 % 1011,5 hPa 0,0 l/m 0 min 0 min 0 W/m 6,4 km/h (2 Bft) 95,74 %
05.10.2021 04:56 10,0 C 9,4 C 8,9 C 92 % 1011,4 hPa 0,0 l/m 0 min 0 min 0 W/m 6,4 km/h (2 Bft) 95,74 %
05.10.2021 04:58 10,0 C 9,4 C 8,9 C 92 % 1011,4 hPa 0,0 l/m 0 min 0 min 0 W/m 12,9 km/h (3 Bft) 98,00 %
05.10.2021 05:00 10,1 C 9,4 C 8,9 C 92 % 1011,4 hPa 0,0 l/m 0 min 0 min 0 W/m 12,9 km/h (3 Bft) 97,83 %
05.10.2021 05:02 10,1 C 9,4 C 8,9 C 92 % 1011,4 hPa 0,0 l/m 0 min 0 min 0 W/m 9,7 km/h (2 Bft) 93,88 %
05.10.2021 05:04 10,1 C 9,4 C 8,9 C 92 % 1011,3 hPa 0,0 l/m 0 min 0 min 0 W/m 6,4 km/h (2 Bft) 95,83 %
05.10.2021 05:06 10,1 C 9,4 C 8,9 C 92 % 1011,3 hPa 0,0 l/m 0 min 0 min 0 W/m 12,9 km/h (3 Bft) 97,87 %
05.10.2021 05:08 10,1 C 9,4 C 8,9 C 92 % 1011,3 hPa 0,0 l/m 0 min 0 min 0 W/m 6,4 km/h (2 Bft) 100,00 %
05.10.2021 05:10 10,1 C 9,4 C 8,9 C 92 % 1011,3 hPa 0,0 l/m 0 min 0 min 0 W/m 6,4 km/h (2 Bft) 100,00 %
05.10.2021 05:12 10,1 C 9,4 C 8,9 C 92 % 1011,3 hPa 0,0 l/m 0 min 0 min 0 W/m 12,9 km/h (3 Bft) 97,83 %
05.10.2021 05:14 10,1 C 9,4 C 8,9 C 92 % 1011,2 hPa 0,0 l/m 0 min 0 min 0 W/m 6,4 km/h (2 Bft) 96,36 %
05.10.2021 05:16 10,1 C 9,4 C 8,9 C 92 % 1011,2 hPa 0,0 l/m 0 min 0 min 0 W/m 6,4 km/h (2 Bft) 100,00 %
05.10.2021 05:18 10,1 C 9,4 C 8,9 C 92 % 1011,1 hPa 0,0 l/m 0 min 0 min 0 W/m 6,4 km/h (2 Bft) 100,00 %
05.10.2021 05:20 10,1 C 9,4 C 8,9 C 92 % 1011,2 hPa 0,0 l/m 0 min 0 min 0 W/m 16,1 km/h (3 Bft) 97,87 %
05.10.2021 05:22 10,1 C 9,4 C 8,9 C 92 % 1011,1 hPa 0,0 l/m 0 min 0 min 0 W/m 6,4 km/h (2 Bft) 97,83 %
05.10.2021 05:24 10,1 C 9,4 C 8,9 C 92 % 1011,2 hPa 0,0 l/m 0 min 0 min 0 W/m 6,4 km/h (2 Bft) 97,87 %
05.10.2021 05:26 10,1 C 9,4 C 8,4 C 92 % 1011,1 hPa 0,0 l/m 0 min 0 min 0 W/m 3,2 km/h (1 Bft) 95,74 %
05.10.2021 05:28 10,1 C 9,4 C 8,4 C 92 % 1011,2 hPa 0,0 l/m 0 min 0 min 0 W/m 3,2 km/h (1 Bft) 97,87 %
05.10.2021 05:30 10,1 C 9,4 C 8,4 C 92 % 1011,2 hPa 0,0 l/m 0 min 0 min 0 W/m 3,2 km/h (1 Bft) 97,87 %
05.10.2021 05:32 10,1 C 9,4 C 8,4 C 92 % 1011,2 hPa 0,0 l/m 0 min 0 min 0 W/m 6,4 km/h (2 Bft) 95,74 %
05.10.2021 05:34 10,1 C 9,4 C 8,4 C 92 % 1011,1 hPa 0,0 l/m 0 min 0 min 0 W/m 6,4 km/h (2 Bft) 97,87 %
05.10.2021 05:36 10,0 C 9,4 C 8,4 C 92 % 1011,1 hPa 0,0 l/m 0 min 0 min 0 W/m 6,4 km/h (2 Bft) 97,14 %
05.10.2021 05:38 10,0 C 9,4 C 8,4 C 92 % 1011,1 hPa 0,0 l/m 0 min 0 min 0 W/m 6,4 km/h (2 Bft) 97,87 %
05.10.2021 05:40 10,0 C 9,4 C 8,4 C 92 % 1011,1 hPa 0,0 l/m 0 min 0 min 0 W/m 12,9 km/h (3 Bft) 97,87 %
05.10.2021 05:42 10,0 C 9,4 C 8,4 C 92 % 1011,0 hPa 0,0 l/m 0 min 0 min 0 W/m 3,2 km/h (1 Bft) 98,18 %
05.10.2021 05:44 10,0 C 9,4 C 8,4 C 92 % 1010,9 hPa 0,0 l/m 0 min 0 min 0 W/m 6,4 km/h (2 Bft) 93,62 %
05.10.2021 05:46 10,0 C 9,4 C 8,4 C 92 % 1010,8 hPa 0,0 l/m 0 min 0 min 0 W/m 6,4 km/h (2 Bft) 97,83 %
05.10.2021 05:48 10,0 C 9,4 C 8,4 C 92 % 1010,8 hPa 0,0 l/m 0 min 0 min 0 W/m 3,2 km/h (1 Bft) 97,87 %
05.10.2021 05:50 10,0 C 9,4 C 8,4 C 92 % 1010,8 hPa 0,0 l/m 0 min 0 min 0 W/m 6,4 km/h (2 Bft) 97,87 %
05.10.2021 05:52 10,0 C 9,4 C 8,4 C 92 % 1010,8 hPa 0,0 l/m 0 min 0 min 0 W/m 6,4 km/h (2 Bft) 95,74 %
05.10.2021 05:54 10,0 C 9,4 C 8,4 C 92 % 1010,7 hPa 0,0 l/m 0 min 0 min 0 W/m 6,4 km/h (2 Bft) 95,74 %
05.10.2021 05:56 10,0 C 9,4 C 8,4 C 92 % 1010,6 hPa 0,0 l/m 0 min 0 min 0 W/m 6,4 km/h (2 Bft) 97,83 %
05.10.2021 05:58 10,0 C 9,4 C 8,4 C 92 % 1010,6 hPa 0,0 l/m 0 min 0 min 0 W/m 6,4 km/h (2 Bft) 97,62 %
05.10.2021 06:00 10,0 C 9,4 C 8,4 C 92 % 1010,6 hPa 0,0 l/m 0 min 0 min 0 W/m 6,4 km/h (2 Bft) 97,87 %
05.10.2021 06:02 10,0 C 9,4 C 8,4 C 92 % 1010,6 hPa 0,0 l/m 0 min 0 min 0 W/m 6,4 km/h (2 Bft) 98,00 %
05.10.2021 06:04 10,0 C 9,4 C 8,4 C 92 % 1010,7 hPa 0,0 l/m 0 min 0 min 0 W/m 3,2 km/h (1 Bft) 100,00 %
05.10.2021 06:08 9,9 C 8,9 C 8,4 C 92 % 1010,6 hPa 0,0 l/m 0 min 0 min 0 W/m 3,2 km/h (1 Bft) 100,00 %
05.10.2021 06:10 9,9 C 8,9 C 8,4 C 92 % 1010,6 hPa 0,0 l/m 0 min 0 min 0 W/m 6,4 km/h (2 Bft) 100,00 %
05.10.2021 06:12 9,9 C 8,9 C 8,4 C 92 % 1010,5 hPa 0,0 l/m 0 min 0 min 0 W/m 3,2 km/h (1 Bft) 100,00 %
05.10.2021 06:14 9,9 C 8,9 C 8,4 C 92 % 1010,6 hPa 0,0 l/m 0 min 0 min 0 W/m 6,4 km/h (2 Bft) 100,00 %
05.10.2021 06:16 9,9 C 8,9 C 8,4 C 92 % 1010,5 hPa 0,0 l/m 0 min 0 min 0 W/m 6,4 km/h (2 Bft) 100,00 %
05.10.2021 06:18 9,9 C 8,9 C 8,4 C 92 % 1010,6 hPa 0,0 l/m 0 min 0 min 0 W/m 12,9 km/h (3 Bft) 100,00 %
05.10.2021 06:20 9,9 C 8,9 C 8,4 C 92 % 1010,6 hPa 0,0 l/m 0 min 0 min 0 W/m 6,4 km/h (2 Bft) 100,00 %
05.10.2021 06:22 9,9 C 8,9 C 8,4 C 92 % 1010,5 hPa 0,0 l/m 0 min 0 min 0 W/m 3,2 km/h (1 Bft) 97,87 %
05.10.2021 06:24 9,9 C 8,9 C 8,4 C 92 % 1010,5 hPa 0,0 l/m 0 min 0 min 0 W/m 3,2 km/h (1 Bft) 100,00 %
05.10.2021 06:26 9,8 C 8,9 C 8,4 C 93 % 1010,5 hPa 0,0 l/m 0 min 0 min 0 W/m 3,2 km/h (1 Bft) 97,87 %
05.10.2021 06:28 9,8 C 8,9 C 8,4 C 93 % 1010,5 hPa 0,0 l/m 0 min 0 min 0 W/m 12,9 km/h (3 Bft) 97,87 %
05.10.2021 06:30 9,8 C 8,9 C 8,4 C 93 % 1010,4 hPa 0,0 l/m 0 min 0 min 0 W/m 6,4 km/h (2 Bft) 95,74 %
05.10.2021 06:32 9,8 C 8,9 C 8,4 C 93 % 1010,4 hPa 0,0 l/m 0 min 0 min 0 W/m 3,2 km/h (1 Bft) 97,83 %
05.10.2021 06:34 9,8 C 8,9 C 8,4 C 93 % 1010,4 hPa 0,0 l/m 0 min 0 min 0 W/m 6,4 km/h (2 Bft) 97,67 %
05.10.2021 06:36 9,8 C 8,9 C 8,4 C 92 % 1010,4 hPa 0,0 l/m 0 min 0 min 0 W/m 6,4 km/h (2 Bft) 97,87 %
05.10.2021 06:38 9,8 C 8,9 C 8,4 C 92 % 1010,4 hPa 0,0 l/m 0 min 0 min 0 W/m 9,7 km/h (2 Bft) 97,87 %
05.10.2021 06:40 9,8 C 8,9 C 8,4 C 93 % 1010,3 hPa 0,0 l/m 0 min 0 min 0 W/m 6,4 km/h (2 Bft) 97,87 %
05.10.2021 06:42 9,8 C 8,9 C 8,4 C 93 % 1010,3 hPa 0,0 l/m 0 min 0 min 0 W/m 3,2 km/h (1 Bft) 97,87 %
05.10.2021 06:44 9,8 C 8,9 C 8,4 C 93 % 1010,2 hPa 0,0 l/m 0 min 0 min 0 W/m 9,7 km/h (2 Bft) 95,92 %
05.10.2021 06:46 9,8 C 8,9 C 8,4 C 93 % 1010,2 hPa 0,0 l/m 0 min 0 min 0 W/m 12,9 km/h (3 Bft) 95,83 %
05.10.2021 06:48 9,8 C 8,9 C 8,4 C 93 % 1010,2 hPa 0,0 l/m 0 min 0 min 0 W/m 6,4 km/h (2 Bft) 95,74 %
05.10.2021 06:50 9,8 C 8,9 C 8,4 C 93 % 1010,2 hPa 0,0 l/m 0 min 0 min 0 W/m 6,4 km/h (2 Bft) 95,74 %
05.10.2021 06:52 9,8 C 9,4 C 8,4 C 93 % 1010,1 hPa 0,0 l/m 0 min 0 min 0 W/m 16,1 km/h (3 Bft) 95,74 %
05.10.2021 06:54 9,8 C 9,4 C 8,4 C 93 % 1010,1 hPa 0,0 l/m 0 min 0 min 0 W/m 6,4 km/h (2 Bft) 95,65 %
05.10.2021 06:56 9,8 C 9,4 C 8,4 C 93 % 1010,1 hPa 0,0 l/m 0 min 0 min 0 W/m 12,9 km/h (3 Bft) 95,74 %
05.10.2021 06:58 9,8 C 9,4 C 8,4 C 93 % 1010,0 hPa 0,0 l/m 0 min 0 min 0 W/m 6,4 km/h (2 Bft) 98,00 %
05.10.2021 07:00 9,8 C 9,4 C 8,4 C 93 % 1010,0 hPa 0,0 l/m 0 min 0 min 0 W/m 12,9 km/h (3 Bft) 97,87 %
05.10.2021 07:02 9,8 C 9,4 C 8,4 C 93 % 1010,0 hPa 0,0 l/m 0 min 0 min 0 W/m 3,2 km/h (1 Bft) 97,96 %
05.10.2021 07:04 9,8 C 9,4 C 8,4 C 93 % 1009,9 hPa 0,0 l/m 0 min 0 min 0 W/m 6,4 km/h (2 Bft) 97,67 %
05.10.2021 07:06 9,8 C 9,4 C 8,4 C 93 % 1009,9 hPa 0,0 l/m 0 min 0 min 0 W/m 9,7 km/h (2 Bft) 97,83 %
05.10.2021 07:08 9,8 C 9,4 C 8,4 C 93 % 1009,9 hPa 0,0 l/m 0 min 0 min 0 W/m 6,4 km/h (2 Bft) 97,87 %
05.10.2021 07:10 9,9 C 9,4 C 8,4 C 93 % 1009,9 hPa 0,0 l/m 0 min 0 min 0 W/m 6,4 km/h (2 Bft) 100,00 %
05.10.2021 07:12 9,9 C 9,4 C 8,4 C 93 % 1009,8 hPa 0,0 l/m 0 min 0 min 0 W/m 6,4 km/h (2 Bft) 97,62 %
05.10.2021 07:14 9,9 C 9,4 C 8,4 C 93 % 1009,8 hPa 0,0 l/m 0 min 0 min 0 W/m 6,4 km/h (2 Bft) 96,00 %
05.10.2021 07:16 9,9 C 9,4 C 8,4 C 93 % 1009,8 hPa 0,0 l/m 0 min 0 min 0 W/m 6,4 km/h (2 Bft) 97,87 %
05.10.2021 07:18 9,9 C 9,4 C 8,4 C 93 % 1009,7 hPa 0,0 l/m 0 min 0 min 0 W/m 6,4 km/h (2 Bft) 93,48 %
05.10.2021 07:20 9,9 C 9,4 C 8,4 C 93 % 1009,7 hPa 0,0 l/m 0 min 0 min 0 W/m 3,2 km/h (1 Bft) 97,96 %
05.10.2021 07:22 9,9 C 9,4 C 8,4 C 93 % 1009,7 hPa 0,0 l/m 0 min 0 min 0 W/m 6,4 km/h (2 Bft) 95,74 %
05.10.2021 07:24 9,9 C 9,4 C 8,4 C 93 % 1009,8 hPa 0,0 l/m 0 min 0 min 0 W/m 16,1 km/h (3 Bft) 97,87 %
05.10.2021 07:26 9,9 C 9,4 C 8,4 C 93 % 1009,8 hPa 0,0 l/m 0 min 0 min 0 W/m 12,9 km/h (3 Bft) 95,24 %
05.10.2021 07:28 9,9 C 9,4 C 8,9 C 93 % 1009,7 hPa 0,0 l/m 0 min 0 min 0 W/m 6,4 km/h (2 Bft) 98,00 %
05.10.2021 07:30 9,9 C 9,4 C 8,9 C 93 % 1009,7 hPa 0,0 l/m 0 min 0 min 0 W/m 6,4 km/h (2 Bft) 95,65 %
05.10.2021 07:32 9,9 C 9,4 C 8,9 C 93 % 1009,6 hPa 0,0 l/m 0 min 0 min 0 W/m 12,9 km/h (3 Bft) 97,96 %
05.10.2021 07:34 9,9 C 9,4 C 8,4 C 93 % 1009,5 hPa 0,0 l/m 0 min 0 min 0 W/m 6,4 km/h (2 Bft) 97,87 %
05.10.2021 07:36 9,9 C 9,4 C 8,9 C 93 % 1009,5 hPa 0,0 l/m 0 min 0 min 0 W/m 6,4 km/h (2 Bft) 97,62 %
05.10.2021 07:38 9,9 C 9,4 C 8,9 C 93 % 1009,5 hPa 0,0 l/m 0 min 0 min 0 W/m 6,4 km/h (2 Bft) 100,00 %
05.10.2021 07:40 9,9 C 9,4 C 8,9 C 93 % 1009,5 hPa 0,0 l/m 0 min 0 min 0 W/m 6,4 km/h (2 Bft) 97,96 %
05.10.2021 07:42 9,9 C 9,4 C 8,9 C 93 % 1009,5 hPa 0,0 l/m 0 min 0 min 0 W/m 6,4 km/h (2 Bft) 97,87 %
05.10.2021 07:44 9,9 C 9,4 C 8,9 C 93 % 1009,5 hPa 0,0 l/m 0 min 0 min 0 W/m 6,4 km/h (2 Bft) 97,87 %
05.10.2021 07:46 10,0 C 9,4 C 8,9 C 94 % 1009,5 hPa 0,0 l/m 0 min 0 min 0 W/m 12,9 km/h (3 Bft) 97,96 %
05.10.2021 07:48 10,0 C 9,4 C 8,9 C 93 % 1009,4 hPa 0,0 l/m 0 min 0 min 0 W/m 6,4 km/h (2 Bft) 100,00 %
05.10.2021 07:50 10,0 C 9,4 C 8,9 C 94 % 1009,3 hPa 0,0 l/m 0 min 0 min 0 W/m 6,4 km/h (2 Bft) 95,24 %
05.10.2021 07:52 10,0 C 9,4 C 8,9 C 94 % 1009,3 hPa 0,0 l/m 0 min 0 min 2 W/m 6,4 km/h (2 Bft) 97,87 %
05.10.2021 07:54 10,0 C 9,4 C 8,9 C 94 % 1009,3 hPa 0,0 l/m 0 min 0 min 5 W/m 9,7 km/h (2 Bft) 97,83 %
05.10.2021 07:56 10,0 C 9,4 C 8,9 C 94 % 1009,3 hPa 0,0 l/m 0 min 0 min 7 W/m 9,7 km/h (2 Bft) 98,00 %
05.10.2021 07:58 10,0 C 9,4 C 8,9 C 94 % 1009,2 hPa 0,0 l/m 0 min 0 min 8 W/m 6,4 km/h (2 Bft) 95,74 %
05.10.2021 08:00 10,0 C 9,4 C 8,9 C 94 % 1009,1 hPa 0,0 l/m 0 min 0 min 9 W/m 9,7 km/h (2 Bft) 96,00 %
05.10.2021 08:02 10,0 C 9,4 C 8,9 C 94 % 1009,2 hPa 0,0 l/m 0 min 0 min 10 W/m 12,9 km/h (3 Bft) 95,92 %
05.10.2021 08:04 10,0 C 9,4 C 8,9 C 94 % 1009,2 hPa 0,0 l/m 0 min 0 min 12 W/m 6,4 km/h (2 Bft) 93,62 %
05.10.2021 08:06 10,1 C 9,4 C 8,9 C 94 % 1009,2 hPa 0,0 l/m 0 min 0 min 13 W/m 12,9 km/h (3 Bft) 97,37 %
05.10.2021 08:08 10,1 C 9,4 C 8,9 C 94 % 1009,2 hPa 0,0 l/m 0 min 0 min 14 W/m 9,7 km/h (2 Bft) 97,87 %
05.10.2021 08:10 10,1 C 9,4 C 8,9 C 94 % 1009,2 hPa 0,0 l/m 0 min 0 min 14 W/m 6,4 km/h (2 Bft) 97,87 %
05.10.2021 08:12 10,1 C 9,4 C 8,9 C 94 % 1009,1 hPa 0,0 l/m 0 min 0 min 14 W/m 6,4 km/h (2 Bft) 93,88 %
05.10.2021 08:14 10,1 C 10,0 C 8,9 C 94 % 1009,2 hPa 0,0 l/m 0 min 0 min 15 W/m 9,7 km/h (2 Bft) 95,74 %
05.10.2021 08:16 10,2 C 10,0 C 8,9 C 94 % 1009,2 hPa 0,0 l/m 0 min 0 min 16 W/m 12,9 km/h (3 Bft) 95,65 %
05.10.2021 08:18 10,2 C 10,0 C 8,9 C 94 % 1009,1 hPa 0,0 l/m 0 min 0 min 19 W/m 12,9 km/h (3 Bft) 96,30 %
05.10.2021 08:20 10,3 C 10,0 C 8,9 C 94 % 1009,2 hPa 0,0 l/m 0 min 0 min 23 W/m 12,9 km/h (3 Bft) 94,74 %
05.10.2021 08:22 10,3 C 10,0 C 9,5 C 94 % 1009,1 hPa 0,0 l/m 0 min 0 min 25 W/m 12,9 km/h (3 Bft) 95,92 %
05.10.2021 08:24 10,3 C 10,0 C 9,5 C 94 % 1009,1 hPa 0,0 l/m 0 min 0 min 25 W/m 16,1 km/h (3 Bft) 95,74 %
05.10.2021 08:26 10,4 C 10,0 C 9,5 C 94 % 1009,1 hPa 0,0 l/m 0 min 0 min 28 W/m 16,1 km/h (3 Bft) 94,34 %
05.10.2021 08:28 10,4 C 10,0 C 9,5 C 94 % 1009,1 hPa 0,0 l/m 0 min 0 min 31 W/m 6,4 km/h (2 Bft) 97,37 %
05.10.2021 08:30 10,4 C 10,0 C 9,5 C 94 % 1009,1 hPa 0,0 l/m 0 min 0 min 34 W/m 9,7 km/h (2 Bft) 93,62 %
05.10.2021 08:32 10,4 C 10,0 C 9,5 C 94 % 1009,0 hPa 0,0 l/m 0 min 0 min 35 W/m 9,7 km/h (2 Bft) 93,88 %
05.10.2021 08:34 10,5 C 10,0 C 9,5 C 94 % 1009,0 hPa 0,0 l/m 0 min 0 min 33 W/m 12,9 km/h (3 Bft) 95,74 %
05.10.2021 08:36 10,5 C 10,0 C 9,5 C 94 % 1009,1 hPa 0,0 l/m 0 min 0 min 33 W/m 6,4 km/h (2 Bft) 98,15 %
05.10.2021 08:38 10,5 C 10,0 C 9,5 C 94 % 1009,1 hPa 0,0 l/m 0 min 0 min 35 W/m 6,4 km/h (2 Bft) 97,83 %
05.10.2021 08:40 10,5 C 10,0 C 9,5 C 94 % 1009,0 hPa 0,0 l/m 0 min 0 min 35 W/m 9,7 km/h (2 Bft) 97,37 %
05.10.2021 08:42 10,5 C 10,0 C 9,5 C 94 % 1009,1 hPa 0,0 l/m 0 min 0 min 33 W/m 16,1 km/h (3 Bft) 97,96 %
05.10.2021 08:44 10,5 C 10,0 C 9,5 C 94 % 1009,1 hPa 0,0 l/m 0 min 0 min 32 W/m 12,9 km/h (3 Bft) 97,87 %
05.10.2021 08:45 10,5 C 10,0 C 9,5 C 93 % 1009,1 hPa 0,0 l/m 0 min 0 min 30 W/m 6,4 km/h (2 Bft) 98,15 %
05.10.2021 08:48 10,5 C 10,0 C 9,5 C 93 % 1009,0 hPa 0,0 l/m 0 min 0 min 30 W/m 12,9 km/h (3 Bft) 100,00 %
05.10.2021 08:50 10,5 C 10,0 C 9,5 C 93 % 1008,9 hPa 0,0 l/m 0 min 0 min 29 W/m 6,4 km/h (2 Bft) 100,00 %
05.10.2021 08:52 10,6 C 10,0 C 9,5 C 93 % 1009,0 hPa 0,0 l/m 0 min 0 min 28 W/m 6,4 km/h (2 Bft) 100,00 %
05.10.2021 08:54 10,6 C 10,0 C 9,5 C 93 % 1009,0 hPa 0,0 l/m 0 min 0 min 30 W/m 12,9 km/h (3 Bft) 97,87 %
05.10.2021 08:56 10,6 C 10,0 C 9,5 C 93 % 1009,0 hPa 0,0 l/m 0 min 0 min 32 W/m 16,1 km/h (3 Bft) 97,87 %
05.10.2021 08:58 10,6 C 10,0 C 9,5 C 93 % 1009,0 hPa 0,0 l/m 0 min 0 min 33 W/m 9,7 km/h (2 Bft) 100,00 %
05.10.2021 09:00 10,6 C 10,0 C 9,5 C 93 % 1008,9 hPa 0,0 l/m 0 min 0 min 33 W/m 22,5 km/h (4 Bft) 100,00 %
05.10.2021 09:02 10,6 C 10,0 C 9,5 C 93 % 1008,9 hPa 0,0 l/m 0 min 0 min 32 W/m 12,9 km/h (3 Bft) 100,00 %
05.10.2021 09:04 10,6 C 10,0 C 9,5 C 93 % 1008,8 hPa 0,0 l/m 0 min 0 min 32 W/m 12,9 km/h (3 Bft) 100,00 %
05.10.2021 09:06 10,6 C 10,0 C 9,5 C 93 % 1008,8 hPa 0,0 l/m 0 min 0 min 34 W/m 6,4 km/h (2 Bft) 100,00 %
05.10.2021 09:08 10,6 C 10,0 C 9,5 C 93 % 1008,8 hPa 0,0 l/m 0 min 0 min 38 W/m 9,7 km/h (2 Bft) 100,00 %
05.10.2021 09:10 10,6 C 10,0 C 9,5 C 93 % 1008,8 hPa 0,0 l/m 0 min 0 min 42 W/m 6,4 km/h (2 Bft) 100,00 %
05.10.2021 09:12 10,6 C 10,0 C 9,5 C 93 % 1008,8 hPa 0,0 l/m 0 min 0 min 45 W/m 16,1 km/h (3 Bft) 100,00 %
05.10.2021 09:14 10,6 C 10,6 C 9,5 C 93 % 1008,7 hPa 0,0 l/m 0 min 0 min 45 W/m 6,4 km/h (2 Bft) 97,87 %
05.10.2021 09:16 10,7 C 10,6 C 9,5 C 93 % 1008,7 hPa 0,0 l/m 0 min 0 min 44 W/m 12,9 km/h (3 Bft) 100,00 %
05.10.2021 09:18 10,8 C 10,6 C 9,5 C 93 % 1008,7 hPa 0,0 l/m 0 min 0 min 42 W/m 6,4 km/h (2 Bft) 100,00 %
05.10.2021 09:20 10,8 C 10,6 C 10,0 C 93 % 1008,7 hPa 0,0 l/m 0 min 0 min 47 W/m 6,4 km/h (2 Bft) 100,00 %
05.10.2021 09:22 10,8 C 10,6 C 10,0 C 93 % 1008,6 hPa 0,0 l/m 0 min 0 min 52 W/m 12,9 km/h (3 Bft) 97,87 %
05.10.2021 09:24 10,9 C 10,6 C 10,0 C 93 % 1008,6 hPa 0,0 l/m 0 min 0 min 66 W/m 19,3 km/h (3 Bft) 100,00 %
05.10.2021 09:26 10,9 C 10,6 C 10,0 C 93 % 1008,6 hPa 0,0 l/m 0 min 0 min 58 W/m 16,1 km/h (3 Bft) 100,00 %
05.10.2021 09:28 11,0 C 11,1 C 10,0 C 93 % 1008,6 hPa 0,0 l/m 0 min 0 min 57 W/m 12,9 km/h (3 Bft) 100,00 %
05.10.2021 09:30 11,0 C 11,1 C 10,0 C 93 % 1008,7 hPa 0,0 l/m 0 min 0 min 62 W/m 29,0 km/h (5 Bft) 100,00 %
05.10.2021 09:32 11,1 C 11,1 C 10,0 C 93 % 1008,6 hPa 0,0 l/m 0 min 0 min 56 W/m 9,7 km/h (2 Bft) 100,00 %
05.10.2021 09:34 11,1 C 11,1 C 10,0 C 93 % 1008,7 hPa 0,0 l/m 0 min 0 min 51 W/m 19,3 km/h (3 Bft) 100,00 %
05.10.2021 09:36 11,1 C 11,1 C 10,0 C 93 % 1008,5 hPa 0,0 l/m 0 min 0 min 53 W/m 19,3 km/h (3 Bft) 100,00 %
05.10.2021 09:38 11,2 C 11,1 C 10,0 C 93 % 1008,5 hPa 0,0 l/m 0 min 0 min 57 W/m 16,1 km/h (3 Bft) 100,00 %
05.10.2021 09:40 11,3 C 11,1 C 10,0 C 93 % 1008,5 hPa 0,0 l/m 0 min 0 min 62 W/m 12,9 km/h (3 Bft) 100,00 %
05.10.2021 09:42 11,3 C 11,1 C 10,0 C 93 % 1008,6 hPa 0,0 l/m 0 min 0 min 59 W/m 9,7 km/h (2 Bft) 97,87 %
05.10.2021 09:44 11,3 C 11,1 C 10,0 C 93 % 1008,6 hPa 0,0 l/m 0 min 0 min 78 W/m 16,1 km/h (3 Bft) 100,00 %
05.10.2021 09:46 11,3 C 11,1 C 10,0 C 93 % 1008,5 hPa 0,0 l/m 0 min 0 min 56 W/m 12,9 km/h (3 Bft) 97,87 %
05.10.2021 09:48 11,4 C 11,1 C 10,0 C 92 % 1008,5 hPa 0,0 l/m 0 min 0 min 81 W/m 19,3 km/h (3 Bft) 97,83 %
05.10.2021 09:50 11,4 C 11,1 C 10,6 C 92 % 1008,5 hPa 0,0 l/m 0 min 0 min 55 W/m 12,9 km/h (3 Bft) 97,87 %
05.10.2021 09:52 11,4 C 11,1 C 10,6 C 92 % 1008,5 hPa 0,0 l/m 0 min 0 min 48 W/m 16,1 km/h (3 Bft) 95,74 %
05.10.2021 09:54 11,5 C 11,1 C 10,6 C 92 % 1008,4 hPa 0,0 l/m 0 min 0 min 89 W/m 12,9 km/h (3 Bft) 97,87 %
05.10.2021 09:56 11,5 C 11,1 C 10,6 C 92 % 1008,4 hPa 0,0 l/m 0 min 0 min 62 W/m 12,9 km/h (3 Bft) 95,74 %
05.10.2021 09:58 11,5 C 11,1 C 10,6 C 92 % 1008,4 hPa 0,0 l/m 0 min 0 min 53 W/m 22,5 km/h (4 Bft) 95,74 %
05.10.2021 10:00 11,5 C 11,7 C 10,6 C 92 % 1008,3 hPa 0,0 l/m 0 min 0 min 61 W/m 16,1 km/h (3 Bft) 97,83 %
05.10.2021 10:02 11,6 C 11,7 C 10,6 C 92 % 1008,3 hPa 0,0 l/m 0 min 0 min 56 W/m 12,9 km/h (3 Bft) 97,87 %
05.10.2021 10:04 11,6 C 11,7 C 10,6 C 92 % 1008,3 hPa 0,0 l/m 0 min 0 min 62 W/m 19,3 km/h (3 Bft) 95,74 %
05.10.2021 10:06 11,6 C 11,7 C 10,6 C 91 % 1008,2 hPa 0,0 l/m 0 min 0 min 90 W/m 22,5 km/h (4 Bft) 95,74 %
05.10.2021 10:08 11,8 C 11,7 C 10,6 C 91 % 1008,3 hPa 0,0 l/m 0 min 0 min 82 W/m 12,9 km/h (3 Bft) 95,74 %
05.10.2021 10:10 11,8 C 11,7 C 10,6 C 91 % 1008,2 hPa 0,0 l/m 0 min 0 min 52 W/m 19,3 km/h (3 Bft) 95,65 %
05.10.2021 10:12 11,8 C 11,7 C 10,6 C 91 % 1008,2 hPa 0,0 l/m 0 min 0 min 53 W/m 12,9 km/h (3 Bft) 95,74 %
05.10.2021 10:14 11,9 C 11,7 C 10,6 C 91 % 1008,2 hPa 0,0 l/m 0 min 0 min 53 W/m 12,9 km/h (3 Bft) 93,62 %
05.10.2021 10:16 11,9 C 11,7 C 10,6 C 91 % 1008,2 hPa 0,0 l/m 0 min 0 min 53 W/m 12,9 km/h (3 Bft) 95,74 %
05.10.2021 10:18 11,9 C 11,7 C 10,6 C 91 % 1008,1 hPa 0,0 l/m 0 min 0 min 62 W/m 22,5 km/h (4 Bft) 95,74 %
05.10.2021 10:20 12,0 C 11,7 C 10,6 C 91 % 1008,2 hPa 0,0 l/m 0 min 0 min 81 W/m 19,3 km/h (3 Bft) 95,74 %
05.10.2021 10:22 12,0 C 12,2 C 11,1 C 90 % 1008,1 hPa 0,0 l/m 0 min 0 min 93 W/m 9,7 km/h (2 Bft) 93,48 %
05.10.2021 10:24 12,1 C 12,2 C 11,1 C 90 % 1008,1 hPa 0,0 l/m 0 min 0 min 81 W/m 16,1 km/h (3 Bft) 95,74 %
05.10.2021 10:26 12,1 C 12,2 C 11,1 C 91 % 1008,2 hPa 0,0 l/m 0 min 0 min 74 W/m 16,1 km/h (3 Bft) 93,62 %
05.10.2021 10:28 12,3 C 12,2 C 11,1 C 90 % 1008,1 hPa 0,0 l/m 0 min 0 min 67 W/m 19,3 km/h (3 Bft) 95,74 %
05.10.2021 10:30 12,3 C 12,2 C 11,1 C 90 % 1008,1 hPa 0,0 l/m 0 min 0 min 78 W/m 19,3 km/h (3 Bft) 97,87 %
05.10.2021 10:32 12,3 C 12,2 C 11,1 C 90 % 1008,1 hPa 0,0 l/m 0 min 0 min 73 W/m 16,1 km/h (3 Bft) 97,87 %
05.10.2021 10:34 12,4 C 12,2 C 11,1 C 90 % 1008,0 hPa 0,0 l/m 0 min 0 min 67 W/m 22,5 km/h (4 Bft) 97,83 %
05.10.2021 10:36 12,4 C 12,2 C 11,1 C 89 % 1008,1 hPa 0,0 l/m 0 min 0 min 67 W/m 16,1 km/h (3 Bft) 95,74 %
05.10.2021 10:38 12,4 C 12,2 C 11,1 C 89 % 1008,1 hPa 0,0 l/m 0 min 0 min 53 W/m 19,3 km/h (3 Bft) 97,87 %
05.10.2021 10:40 12,4 C 12,2 C 11,1 C 89 % 1008,1 hPa 0,0 l/m 0 min 0 min 57 W/m 16,1 km/h (3 Bft) 95,74 %
05.10.2021 10:42 12,4 C 12,2 C 11,1 C 89 % 1008,0 hPa 0,0 l/m 0 min 0 min 85 W/m 16,1 km/h (3 Bft) 93,62 %
05.10.2021 10:44 12,5 C 12,8 C 11,1 C 89 % 1008,0 hPa 0,0 l/m 0 min 0 min 69 W/m 16,1 km/h (3 Bft) 97,83 %
05.10.2021 10:46 12,5 C 12,8 C 11,1 C 88 % 1007,9 hPa 0,0 l/m 0 min 0 min 69 W/m 25,7 km/h (4 Bft) 97,87 %
05.10.2021 10:48 12,5 C 12,8 C 11,1 C 88 % 1007,9 hPa 0,0 l/m 0 min 0 min 78 W/m 19,3 km/h (3 Bft) 97,87 %
05.10.2021 10:50 12,6 C 12,8 C 11,7 C 89 % 1007,8 hPa 0,0 l/m 0 min 0 min 64 W/m 16,1 km/h (3 Bft) 97,87 %
05.10.2021 10:52 12,6 C 12,8 C 12,3 C 88 % 1007,9 hPa 0,0 l/m 0 min 0 min 65 W/m 19,3 km/h (3 Bft) 97,87 %
05.10.2021 10:54 12,8 C 13,3 C 12,8 C 88 % 1007,8 hPa 0,0 l/m 0 min 0 min 76 W/m 25,7 km/h (4 Bft) 97,87 %
05.10.2021 10:56 12,9 C 13,3 C 12,8 C 88 % 1007,7 hPa 0,0 l/m 0 min 0 min 64 W/m 29,0 km/h (5 Bft) 95,65 %
05.10.2021 10:58 13,0 C 13,9 C 13,4 C 88 % 1007,8 hPa 0,0 l/m 0 min 0 min 84 W/m 19,3 km/h (3 Bft) 97,87 %
05.10.2021 11:00 13,1 C 13,9 C 13,4 C 88 % 1007,7 hPa 0,0 l/m 0 min 0 min 73 W/m 19,3 km/h (3 Bft) 97,87 %
05.10.2021 11:02 13,3 C 14,4 C 13,4 C 87 % 1007,7 hPa 0,0 l/m 0 min 0 min 61 W/m 16,1 km/h (3 Bft) 97,87 %
05.10.2021 11:04 13,4 C 14,4 C 13,4 C 87 % 1007,7 hPa 0,0 l/m 0 min 0 min 73 W/m 22,5 km/h (4 Bft) 97,87 %
05.10.2021 11:06 13,5 C 15,0 C 13,9 C 87 % 1007,7 hPa 0,0 l/m 0 min 0 min 69 W/m 19,3 km/h (3 Bft) 95,74 %
05.10.2021 11:08 13,6 C 15,6 C 14,5 C 86 % 1007,6 hPa 0,0 l/m 0 min 0 min 66 W/m 16,1 km/h (3 Bft) 97,83 %
05.10.2021 11:10 13,8 C 15,6 C 15,0 C 86 % 1007,7 hPa 0,0 l/m 0 min 0 min 91 W/m 16,1 km/h (3 Bft) 95,74 %
05.10.2021 11:12 13,8 C 16,1 C 15,6 C 85 % 1007,6 hPa 0,0 l/m 0 min 0 min 193 W/m 16,1 km/h (3 Bft) 95,74 %
05.10.2021 11:14 13,9 C 16,7 C 16,1 C 85 % 1007,5 hPa 0,0 l/m 2 min 0 min 264 W/m 16,1 km/h (3 Bft) 97,87 %
05.10.2021 11:16 14,1 C 17,2 C 16,7 C 85 % 1007,5 hPa 0,0 l/m 2 min 0 min 466 W/m 19,3 km/h (3 Bft) 97,87 %
05.10.2021 11:18 14,2 C 17,8 C 17,3 C 85 % 1007,5 hPa 0,0 l/m 2 min 0 min 443 W/m 12,9 km/h (3 Bft) 97,87 %
05.10.2021 11:20 14,2 C 17,8 C 17,8 C 84 % 1007,4 hPa 0,0 l/m 0 min 0 min 228 W/m 16,1 km/h (3 Bft) 97,83 %
05.10.2021 11:22 14,4 C 17,8 C 17,8 C 84 % 1007,3 hPa 0,0 l/m 2 min 0 min 276 W/m 16,1 km/h (3 Bft) 93,62 %
05.10.2021 11:24 14,5 C 18,3 C 18,4 C 84 % 1007,4 hPa 0,0 l/m 2 min 0 min 259 W/m 19,3 km/h (3 Bft) 97,87 %
05.10.2021 11:26 14,6 C 18,3 C 18,4 C 83 % 1007,3 hPa 0,0 l/m 0 min 0 min 148 W/m 16,1 km/h (3 Bft) 97,87 %
05.10.2021 11:28 14,7 C 17,8 C 18,4 C 83 % 1007,3 hPa 0,0 l/m 0 min 0 min 123 W/m 25,7 km/h (4 Bft) 97,87 %
05.10.2021 11:30 14,8 C 17,8 C 18,4 C 82 % 1007,3 hPa 0,0 l/m 0 min 0 min 116 W/m 19,3 km/h (3 Bft) 97,87 %
05.10.2021 11:32 14,9 C 18,9 C 18,4 C 82 % 1007,3 hPa 0,0 l/m 2 min 0 min 419 W/m 19,3 km/h (3 Bft) 97,83 %
05.10.2021 11:34 15,0 C 19,4 C 18,9 C 82 % 1007,3 hPa 0,0 l/m 2 min 0 min 531 W/m 16,1 km/h (3 Bft) 97,87 %
05.10.2021 11:36 15,1 C 19,4 C 18,9 C 81 % 1007,2 hPa 0,0 l/m 2 min 0 min 527 W/m 16,1 km/h (3 Bft) 95,12 %
05.10.2021 11:38 15,2 C 20,6 C 19,5 C 81 % 1007,1 hPa 0,0 l/m 2 min 0 min 530 W/m 22,5 km/h (4 Bft) 97,87 %
05.10.2021 11:40 15,3 C 20,6 C 19,5 C 81 % 1007,1 hPa 0,0 l/m 2 min 0 min 533 W/m 12,9 km/h (3 Bft) 95,74 %
05.10.2021 11:42 15,4 C 20,6 C 20,0 C 81 % 1007,1 hPa 0,0 l/m 2 min 0 min 534 W/m 22,5 km/h (4 Bft) 97,87 %
05.10.2021 11:44 15,5 C 20,6 C 19,5 C 80 % 1007,1 hPa 0,0 l/m 2 min 0 min 536 W/m 16,1 km/h (3 Bft) 97,83 %
05.10.2021 11:46 15,7 C 21,1 C 20,0 C 80 % 1007,1 hPa 0,0 l/m 2 min 0 min 540 W/m 29,0 km/h (5 Bft) 96,23 %
05.10.2021 11:48 15,8 C 20,6 C 19,5 C 79 % 1007,0 hPa 0,0 l/m 2 min 0 min 542 W/m 19,3 km/h (3 Bft) 95,74 %
05.10.2021 11:50 15,9 C 21,1 C 20,0 C 78 % 1007,0 hPa 0,0 l/m 2 min 0 min 542 W/m 12,9 km/h (3 Bft) 97,87 %
05.10.2021 11:52 15,9 C 21,1 C 20,0 C 78 % 1006,9 hPa 0,0 l/m 2 min 0 min 469 W/m 29,0 km/h (5 Bft) 100,00 %
05.10.2021 11:54 16,0 C 20,6 C 20,0 C 78 % 1006,9 hPa 0,0 l/m 2 min 0 min 259 W/m 19,3 km/h (3 Bft) 100,00 %
05.10.2021 11:56 16,0 C 19,4 C 18,9 C 77 % 1006,8 hPa 0,0 l/m 0 min 0 min 108 W/m 19,3 km/h (3 Bft) 100,00 %
05.10.2021 11:58 16,0 C 18,9 C 18,4 C 77 % 1006,8 hPa 0,0 l/m 0 min 0 min 134 W/m 16,1 km/h (3 Bft) 100,00 %
05.10.2021 12:00 16,1 C 18,9 C 17,3 C 78 % 1006,7 hPa 0,0 l/m 0 min 0 min 198 W/m 19,3 km/h (3 Bft) 93,62 %
05.10.2021 12:02 16,1 C 17,8 C 16,7 C 77 % 1006,6 hPa 0,0 l/m 2 min 0 min 268 W/m 19,3 km/h (3 Bft) 100,00 %
05.10.2021 12:04 16,1 C 17,2 C 16,7 C 77 % 1006,6 hPa 0,0 l/m 2 min 0 min 302 W/m 22,5 km/h (4 Bft) 100,00 %
05.10.2021 12:05 16,1 C 17,2 C 16,7 C 77 % 1006,6 hPa 0,0 l/m 1 min 0 min 305 W/m 29,0 km/h (5 Bft) 100,00 %
05.10.2021 12:10 16,3 C 18,3 C 16,7 C 76 % 1006,4 hPa 0,0 l/m 0 min 0 min 258 W/m 29,0 km/h (5 Bft) 100,00 %
05.10.2021 12:15 16,4 C 17,8 C 16,1 C 76 % 1006,2 hPa 0,0 l/m 0 min 0 min 92 W/m 22,5 km/h (4 Bft) 100,00 %
05.10.2021 12:20 16,5 C 16,7 C 15,6 C 75 % 1006,2 hPa 0,0 l/m 0 min 0 min 60 W/m 19,3 km/h (3 Bft) 100,00 %
05.10.2021 12:25 16,8 C 16,7 C 15,0 C 74 % 1006,0 hPa 0,0 l/m 0 min 0 min 54 W/m 25,7 km/h (4 Bft) 100,00 %
05.10.2021 12:30 16,9 C 16,7 C 15,0 C 73 % 1006,0 hPa 0,0 l/m 0 min 0 min 54 W/m 35,4 km/h (5 Bft) 100,00 %
05.10.2021 12:35 16,9 C 16,7 C 15,0 C 73 % 1005,9 hPa 0,0 l/m 0 min 0 min 55 W/m 25,7 km/h (4 Bft) 99,12 %
05.10.2021 12:38 17,0 C 16,7 C 15,0 C 73 % 1005,9 hPa 0,0 l/m 0 min 0 min 49 W/m 19,3 km/h (3 Bft) 95,83 %
05.10.2021 12:40 17,1 C 16,7 C 15,0 C 73 % 1005,9 hPa 0,0 l/m 0 min 0 min 49 W/m 22,5 km/h (4 Bft) 95,74 %
05.10.2021 12:42 17,1 C 16,7 C 15,0 C 72 % 1005,9 hPa 0,0 l/m 0 min 0 min 50 W/m 25,7 km/h (4 Bft) 95,74 %
05.10.2021 12:44 17,2 C 16,7 C 15,0 C 71 % 1005,8 hPa 0,0 l/m 0 min 0 min 51 W/m 29,0 km/h (5 Bft) 95,74 %
05.10.2021 12:46 17,3 C 16,7 C 15,0 C 71 % 1005,9 hPa 0,0 l/m 0 min 0 min 49 W/m 19,3 km/h (3 Bft) 95,74 %
05.10.2021 12:48 17,3 C 16,7 C 15,0 C 70 % 1005,9 hPa 0,0 l/m 0 min 0 min 50 W/m 22,5 km/h (4 Bft) 97,83 %
05.10.2021 12:50 17,4 C 16,7 C 15,0 C 70 % 1005,9 hPa 0,0 l/m 0 min 0 min 53 W/m 41,8 km/h (6 Bft) 97,87 %
05.10.2021 12:52 17,4 C 16,7 C 15,0 C 70 % 1005,7 hPa 0,0 l/m 0 min 0 min 49 W/m 19,3 km/h (3 Bft) 97,87 %
05.10.2021 12:54 17,4 C 16,7 C 15,0 C 71 % 1005,7 hPa 0,0 l/m 0 min 0 min 50 W/m 32,2 km/h (5 Bft) 95,74 %
05.10.2021 12:56 17,4 C 16,7 C 15,0 C 70 % 1005,6 hPa 0,0 l/m 0 min 0 min 50 W/m 29,0 km/h (5 Bft) 95,74 %
05.10.2021 12:58 17,4 C 16,7 C 15,0 C 70 % 1005,7 hPa 0,0 l/m 0 min 0 min 51 W/m 32,2 km/h (5 Bft) 97,87 %
05.10.2021 13:00 17,4 C 16,7 C 15,0 C 70 % 1005,5 hPa 0,0 l/m 0 min 0 min 53 W/m 19,3 km/h (3 Bft) 95,65 %
05.10.2021 13:02 17,5 C 17,2 C 15,0 C 70 % 1005,5 hPa 0,0 l/m 0 min 0 min 53 W/m 22,5 km/h (4 Bft) 97,87 %
05.10.2021 13:04 17,5 C 17,2 C 15,0 C 70 % 1005,5 hPa 0,0 l/m 0 min 0 min 60 W/m 22,5 km/h (4 Bft) 97,87 %
05.10.2021 13:06 17,6 C 17,2 C 15,0 C 70 % 1005,5 hPa 0,0 l/m 0 min 0 min 61 W/m 35,4 km/h (5 Bft) 97,87 %
05.10.2021 13:08 17,6 C 17,2 C 15,0 C 70 % 1005,5 hPa 0,0 l/m 0 min 0 min 57 W/m 25,7 km/h (4 Bft) 97,87 %
05.10.2021 13:10 17,6 C 17,2 C 15,0 C 70 % 1005,4 hPa 0,0 l/m 0 min 0 min 63 W/m 25,7 km/h (4 Bft) 97,87 %
05.10.2021 13:12 17,6 C 17,2 C 15,0 C 70 % 1005,4 hPa 0,0 l/m 0 min 0 min 74 W/m 19,3 km/h (3 Bft) 93,48 %
05.10.2021 13:14 17,6 C 17,2 C 15,0 C 70 % 1005,5 hPa 0,0 l/m 0 min 0 min 68 W/m 35,4 km/h (5 Bft) 89,36 %
05.10.2021 13:16 17,6 C 17,2 C 15,0 C 69 % 1005,4 hPa 0,0 l/m 0 min 0 min 79 W/m 25,7 km/h (4 Bft) 62,79 %
05.10.2021 13:18 17,7 C 17,2 C 15,0 C 69 % 1005,4 hPa 0,0 l/m 0 min 0 min 140 W/m 35,4 km/h (5 Bft) 95,74 %
05.10.2021 13:20 17,7 C 17,2 C 15,0 C 69 % 1005,6 hPa 0,0 l/m 0 min 0 min 185 W/m 29,0 km/h (5 Bft) 100,00 %
05.10.2021 13:22 17,8 C 17,2 C 15,0 C 69 % 1005,5 hPa 0,0 l/m 0 min 0 min 144 W/m 25,7 km/h (4 Bft) 100,00 %
05.10.2021 13:24 17,8 C 17,2 C 15,0 C 68 % 1005,5 hPa 0,0 l/m 0 min 0 min 171 W/m 29,0 km/h (5 Bft) 95,65 %
05.10.2021 13:26 17,7 C 17,2 C 15,0 C 69 % 1005,4 hPa 0,0 l/m 0 min 0 min 200 W/m 22,5 km/h (4 Bft) 100,00 %
05.10.2021 13:28 17,6 C 17,2 C 15,0 C 68 % 1005,2 hPa 0,0 l/m 0 min 0 min 238 W/m 29,0 km/h (5 Bft) 100,00 %
05.10.2021 13:30 17,7 C 17,8 C 15,6 C 69 % 1005,4 hPa 0,0 l/m 2 min 0 min 285 W/m 41,8 km/h (6 Bft) 100,00 %
05.10.2021 13:32 17,9 C 17,8 C 15,6 C 69 % 1005,3 hPa 0,0 l/m 2 min 0 min 285 W/m 35,4 km/h (5 Bft) 100,00 %
05.10.2021 13:34 18,0 C 17,8 C 15,6 C 69 % 1005,4 hPa 0,0 l/m 0 min 0 min 243 W/m 22,5 km/h (4 Bft) 100,00 %
05.10.2021 13:36 18,1 C 18,3 C 15,6 C 69 % 1005,4 hPa 0,0 l/m 0 min 0 min 250 W/m 19,3 km/h (3 Bft) 100,00 %
05.10.2021 13:38 18,0 C 17,8 C 15,6 C 68 % 1005,3 hPa 0,0 l/m 0 min 0 min 245 W/m 22,5 km/h (4 Bft) 100,00 %
05.10.2021 13:40 17,9 C 17,8 C 15,6 C 69 % 1005,4 hPa 0,0 l/m 0 min 0 min 219 W/m 41,8 km/h (6 Bft) 97,87 %
05.10.2021 13:42 17,9 C 17,8 C 15,6 C 69 % 1005,4 hPa 0,0 l/m 0 min 0 min 235 W/m 25,7 km/h (4 Bft) 100,00 %
05.10.2021 13:44 17,9 C 17,8 C 15,6 C 69 % 1005,4 hPa 0,0 l/m 0 min 0 min 258 W/m 19,3 km/h (3 Bft) 100,00 %
05.10.2021 13:46 17,9 C 17,8 C 15,6 C 69 % 1005,3 hPa 0,0 l/m 0 min 0 min 186 W/m 41,8 km/h (6 Bft) 100,00 %
05.10.2021 13:48 17,8 C 17,2 C 15,6 C 68 % 1005,4 hPa 0,0 l/m 0 min 0 min 161 W/m 19,3 km/h (3 Bft) 100,00 %
05.10.2021 13:50 17,7 C 17,2 C 15,0 C 69 % 1005,3 hPa 0,0 l/m 0 min 0 min 136 W/m 32,2 km/h (5 Bft) 97,87 %
05.10.2021 13:52 17,7 C 17,2 C 15,0 C 69 % 1005,3 hPa 0,0 l/m 0 min 0 min 101 W/m 19,3 km/h (3 Bft) 97,87 %
05.10.2021 13:54 17,6 C 17,2 C 15,0 C 70 % 1005,2 hPa 0,0 l/m 0 min 0 min 87 W/m 12,9 km/h (3 Bft) 97,87 %
05.10.2021 13:56 17,6 C 17,2 C 15,0 C 70 % 1005,2 hPa 0,0 l/m 0 min 0 min 80 W/m 16,1 km/h (3 Bft) 97,87 %
05.10.2021 13:58 17,5 C 17,2 C 15,0 C 70 % 1005,2 hPa 0,0 l/m 0 min 0 min 94 W/m 19,3 km/h (3 Bft) 100,00 %
05.10.2021 14:00 17,5 C 17,2 C 15,0 C 70 % 1005,2 hPa 0,0 l/m 0 min 0 min 138 W/m 22,5 km/h (4 Bft) 97,83 %
05.10.2021 14:02 17,4 C 17,2 C 15,0 C 70 % 1005,2 hPa 0,0 l/m 0 min 0 min 148 W/m 12,9 km/h (3 Bft) 97,87 %
05.10.2021 14:04 17,4 C 17,2 C 15,0 C 70 % 1005,2 hPa 0,0 l/m 0 min 0 min 184 W/m 25,7 km/h (4 Bft) 100,00 %
05.10.2021 14:06 17,5 C 17,2 C 15,0 C 70 % 1005,1 hPa 0,0 l/m 0 min 0 min 194 W/m 22,5 km/h (4 Bft) 100,00 %
05.10.2021 14:08 17,5 C 17,2 C 15,0 C 70 % 1005,1 hPa 0,0 l/m 0 min 0 min 139 W/m 16,1 km/h (3 Bft) 93,62 %
05.10.2021 14:10 17,5 C 17,2 C 15,0 C 70 % 1005,1 hPa 0,0 l/m 0 min 0 min 137 W/m 19,3 km/h (3 Bft) 95,74 %
05.10.2021 14:12 17,5 C 17,2 C 15,0 C 71 % 1005,1 hPa 0,0 l/m 0 min 0 min 208 W/m 16,1 km/h (3 Bft) 97,83 %
05.10.2021 14:14 17,6 C 17,8 C 15,0 C 71 % 1005,0 hPa 0,0 l/m 0 min 0 min 217 W/m 19,3 km/h (3 Bft) 95,74 %
05.10.2021 14:16 17,6 C 17,8 C 15,0 C 70 % 1005,0 hPa 0,0 l/m 0 min 0 min 210 W/m 22,5 km/h (4 Bft) 93,62 %
05.10.2021 14:18 17,6 C 17,8 C 15,0 C 70 % 1005,0 hPa 0,0 l/m 0 min 0 min 210 W/m 16,1 km/h (3 Bft) 95,74 %
05.10.2021 14:20 17,7 C 17,8 C 15,0 C 71 % 1005,0 hPa 0,0 l/m 0 min 0 min 171 W/m 16,1 km/h (3 Bft) 95,74 %
05.10.2021 14:22 17,8 C 17,8 C 15,0 C 70 % 1004,9 hPa 0,0 l/m 0 min 0 min 203 W/m 16,1 km/h (3 Bft) 95,65 %
05.10.2021 14:24 17,9 C 18,3 C 15,6 C 70 % 1004,9 hPa 0,0 l/m 0 min 0 min 237 W/m 19,3 km/h (3 Bft) 95,74 %
05.10.2021 14:26 18,0 C 18,3 C 15,6 C 70 % 1004,9 hPa 0,0 l/m 0 min 0 min 230 W/m 16,1 km/h (3 Bft) 93,62 %
05.10.2021 14:28 18,0 C 18,9 C 15,6 C 70 % 1004,8 hPa 0,0 l/m 0 min 0 min 231 W/m 22,5 km/h (4 Bft) 95,74 %
05.10.2021 14:30 18,1 C 18,9 C 15,6 C 69 % 1004,8 hPa 0,0 l/m 2 min 0 min 271 W/m 29,0 km/h (5 Bft) 95,74 %
05.10.2021 14:32 18,2 C 18,3 C 15,6 C 68 % 1004,8 hPa 0,0 l/m 0 min 0 min 211 W/m 32,2 km/h (5 Bft) 93,62 %
05.10.2021 14:34 18,3 C 18,9 C 15,6 C 68 % 1004,8 hPa 0,0 l/m 0 min 0 min 233 W/m 19,3 km/h (3 Bft) 95,74 %
05.10.2021 14:36 18,4 C 18,9 C 15,6 C 68 % 1004,8 hPa 0,0 l/m 0 min 0 min 255 W/m 19,3 km/h (3 Bft) 95,65 %
05.10.2021 14:38 18,4 C 18,9 C 15,6 C 68 % 1004,7 hPa 0,0 l/m 2 min 0 min 468 W/m 16,1 km/h (3 Bft) 95,74 %
05.10.2021 14:40 18,4 C 18,9 C 15,6 C 67 % 1004,7 hPa 0,0 l/m 2 min 0 min 306 W/m 16,1 km/h (3 Bft) 95,74 %
05.10.2021 14:42 18,4 C 18,3 C 15,6 C 68 % 1004,6 hPa 0,0 l/m 0 min 0 min 247 W/m 19,3 km/h (3 Bft) 95,74 %
05.10.2021 14:44 18,4 C 18,3 C 15,6 C 67 % 1004,7 hPa 0,0 l/m 0 min 0 min 208 W/m 22,5 km/h (4 Bft) 97,87 %
05.10.2021 14:46 18,4 C 18,3 C 15,6 C 67 % 1004,6 hPa 0,0 l/m 0 min 0 min 173 W/m 22,5 km/h (4 Bft) 97,83 %
05.10.2021 14:48 18,3 C 17,8 C 15,6 C 67 % 1004,6 hPa 0,0 l/m 0 min 0 min 130 W/m 29,0 km/h (5 Bft) 97,87 %
05.10.2021 14:50 18,2 C 17,8 C 15,6 C 67 % 1004,6 hPa 0,0 l/m 0 min 0 min 111 W/m 19,3 km/h (3 Bft) 97,87 %
05.10.2021 14:52 18,1 C 17,8 C 15,6 C 68 % 1004,6 hPa 0,0 l/m 0 min 0 min 93 W/m 12,9 km/h (3 Bft) 97,87 %
05.10.2021 14:54 18,1 C 17,8 C 15,6 C 68 % 1004,6 hPa 0,0 l/m 0 min 0 min 92 W/m 16,1 km/h (3 Bft) 97,87 %
05.10.2021 14:56 18,0 C 17,8 C 15,6 C 69 % 1004,5 hPa 0,0 l/m 0 min 0 min 118 W/m 6,4 km/h (2 Bft) 95,74 %
05.10.2021 14:58 18,0 C 17,8 C 15,0 C 69 % 1004,5 hPa 0,0 l/m 0 min 0 min 117 W/m 12,9 km/h (3 Bft) 97,83 %
05.10.2021 15:00 18,0 C 17,8 C 15,0 C 69 % 1004,4 hPa 0,0 l/m 0 min 0 min 131 W/m 16,1 km/h (3 Bft) 100,00 %
05.10.2021 15:02 17,9 C 17,8 C 15,6 C 70 % 1004,3 hPa 0,0 l/m 0 min 0 min 137 W/m 19,3 km/h (3 Bft) 97,87 %
05.10.2021 15:04 17,9 C 17,2 C 15,0 C 69 % 1004,3 hPa 0,0 l/m 0 min 0 min 88 W/m 22,5 km/h (4 Bft) 97,92 %
05.10.2021 15:06 17,9 C 17,2 C 15,0 C 69 % 1004,3 hPa 0,0 l/m 0 min 0 min 60 W/m 16,1 km/h (3 Bft) 100,00 %
05.10.2021 15:08 17,9 C 17,2 C 15,0 C 69 % 1004,3 hPa 0,0 l/m 0 min 0 min 61 W/m 16,1 km/h (3 Bft) 100,00 %
05.10.2021 15:10 17,8 C 17,2 C 15,0 C 69 % 1004,2 hPa 0,0 l/m 0 min 0 min 60 W/m 12,9 km/h (3 Bft) 97,83 %
05.10.2021 15:12 17,8 C 17,2 C 15,0 C 69 % 1004,1 hPa 0,0 l/m 0 min 0 min 69 W/m 16,1 km/h (3 Bft) 97,87 %
05.10.2021 15:14 17,8 C 16,7 C 15,0 C 70 % 1004,1 hPa 0,0 l/m 0 min 0 min 67 W/m 19,3 km/h (3 Bft) 97,87 %
05.10.2021 15:16 17,8 C 16,7 C 15,0 C 70 % 1004,1 hPa 0,0 l/m 0 min 0 min 67 W/m 16,1 km/h (3 Bft) 97,87 %
05.10.2021 15:18 17,7 C 16,7 C 14,5 C 71 % 1004,1 hPa 0,0 l/m 0 min 2 min 68 W/m 6,4 km/h (2 Bft) 95,74 %
05.10.2021 15:20 17,6 C 16,7 C 14,5 C 71 % 1004,2 hPa 0,0 l/m 0 min 2 min 57 W/m 12,9 km/h (3 Bft) 95,74 %
05.10.2021 15:22 17,6 C 16,7 C 13,9 C 71 % 1004,3 hPa 0,0 l/m 0 min 2 min 59 W/m 32,2 km/h (5 Bft) 97,83 %
05.10.2021 15:24 17,5 C 16,7 C 13,4 C 71 % 1004,3 hPa 0,0 l/m 0 min 2 min 54 W/m 48,3 km/h (6 Bft) 97,87 %
05.10.2021 15:26 17,4 C 16,1 C 12,8 C 72 % 1004,3 hPa 0,0 l/m 0 min 2 min 58 W/m 22,5 km/h (4 Bft) 95,74 %
05.10.2021 15:28 17,3 C 15,6 C 12,3 C 73 % 1004,3 hPa 0,0 l/m 0 min 2 min 54 W/m 45,1 km/h (6 Bft) 97,87 %
05.10.2021 15:30 17,1 C 15,0 C 11,7 C 74 % 1004,3 hPa 0,2 l/m 0 min 2 min 47 W/m 29,0 km/h (5 Bft) 97,87 %
05.10.2021 15:32 16,9 C 14,4 C 11,1 C 76 % 1004,3 hPa 0,0 l/m 0 min 2 min 41 W/m 38,6 km/h (5 Bft) 93,62 %
05.10.2021 15:34 16,8 C 13,9 C 11,1 C 77 % 1004,3 hPa 0,0 l/m 0 min 2 min 41 W/m 25,7 km/h (4 Bft) 97,83 %
05.10.2021 15:36 16,6 C 13,9 C 11,1 C 78 % 1004,3 hPa 0,2 l/m 0 min 2 min 36 W/m 22,5 km/h (4 Bft) 95,74 %
05.10.2021 15:38 16,4 C 13,9 C 11,1 C 79 % 1004,3 hPa 0,0 l/m 0 min 2 min 37 W/m 12,9 km/h (3 Bft) 97,87 %
05.10.2021 15:40 16,3 C 13,9 C 11,1 C 79 % 1004,2 hPa 0,2 l/m 0 min 2 min 44 W/m 16,1 km/h (3 Bft) 97,87 %
05.10.2021 15:42 16,2 C 13,9 C 11,1 C 80 % 1004,2 hPa 0,0 l/m 0 min 2 min 45 W/m 6,4 km/h (2 Bft) 97,87 %
05.10.2021 15:44 16,1 C 13,9 C 11,1 C 81 % 1004,1 hPa 0,0 l/m 0 min 2 min 44 W/m 9,7 km/h (2 Bft) 97,87 %
05.10.2021 15:46 16,0 C 13,9 C 11,1 C 82 % 1004,1 hPa 0,0 l/m 0 min 2 min 38 W/m 9,7 km/h (2 Bft) 97,83 %
05.10.2021 15:48 15,9 C 13,9 C 11,1 C 82 % 1004,2 hPa 0,2 l/m 0 min 2 min 32 W/m 16,1 km/h (3 Bft) 95,74 %
05.10.2021 15:50 15,8 C 13,9 C 11,1 C 83 % 1004,1 hPa 0,0 l/m 0 min 2 min 34 W/m 12,9 km/h (3 Bft) 97,87 %
05.10.2021 15:52 15,7 C 13,9 C 11,1 C 83 % 1004,0 hPa 0,0 l/m 0 min 2 min 41 W/m 12,9 km/h (3 Bft) 97,87 %
05.10.2021 15:54 15,6 C 13,3 C 11,1 C 84 % 1004,0 hPa 0,2 l/m 0 min 2 min 45 W/m 16,1 km/h (3 Bft) 95,74 %
05.10.2021 15:56 15,5 C 13,3 C 11,1 C 84 % 1003,9 hPa 0,0 l/m 0 min 2 min 49 W/m 12,9 km/h (3 Bft) 100,00 %
05.10.2021 15:58 15,4 C 13,9 C 11,1 C 85 % 1003,9 hPa 0,0 l/m 0 min 2 min 41 W/m 16,1 km/h (3 Bft) 100,00 %
05.10.2021 16:00 15,3 C 13,9 C 11,1 C 85 % 1003,8 hPa 0,0 l/m 0 min 2 min 34 W/m 6,4 km/h (2 Bft) 100,00 %
05.10.2021 16:02 15,3 C 13,9 C 11,1 C 85 % 1003,8 hPa 0,0 l/m 0 min 2 min 29 W/m 12,9 km/h (3 Bft) 100,00 %
05.10.2021 16:04 15,1 C 13,9 C 11,1 C 86 % 1003,8 hPa 0,0 l/m 0 min 2 min 26 W/m 12,9 km/h (3 Bft) 97,87 %
05.10.2021 16:06 15,1 C 13,9 C 11,1 C 86 % 1003,8 hPa 0,0 l/m 0 min 2 min 23 W/m 9,7 km/h (2 Bft) 97,87 %
05.10.2021 16:08 15,0 C 13,9 C 11,1 C 86 % 1003,8 hPa 0,0 l/m 0 min 2 min 20 W/m 12,9 km/h (3 Bft) 100,00 %
05.10.2021 16:10 15,0 C 13,9 C 11,1 C 86 % 1003,8 hPa 0,0 l/m 0 min 2 min 19 W/m 6,4 km/h (2 Bft) 97,87 %
05.10.2021 16:12 15,0 C 13,9 C 11,1 C 87 % 1003,8 hPa 0,0 l/m 0 min 2 min 21 W/m 16,1 km/h (3 Bft) 97,87 %
05.10.2021 16:14 14,9 C 13,9 C 11,1 C 87 % 1003,8 hPa 0,0 l/m 0 min 2 min 25 W/m 16,1 km/h (3 Bft) 97,87 %
05.10.2021 16:16 14,9 C 13,9 C 11,1 C 87 % 1003,9 hPa 0,0 l/m 0 min 2 min 24 W/m 12,9 km/h (3 Bft) 97,87 %
05.10.2021 16:18 14,8 C 13,9 C 11,1 C 87 % 1003,8 hPa 0,2 l/m 0 min 2 min 22 W/m 12,9 km/h (3 Bft) 97,87 %
05.10.2021 16:20 14,8 C 13,3 C 11,1 C 88 % 1003,8 hPa 0,0 l/m 0 min 2 min 21 W/m 12,9 km/h (3 Bft) 97,83 %
05.10.2021 16:22 14,8 C 13,3 C 11,1 C 88 % 1003,9 hPa 0,2 l/m 0 min 2 min 21 W/m 6,4 km/h (2 Bft) 97,87 %
05.10.2021 16:24 14,7 C 13,3 C 11,1 C 88 % 1003,9 hPa 0,0 l/m 0 min 2 min 24 W/m 12,9 km/h (3 Bft) 97,87 %
05.10.2021 16:26 14,7 C 13,3 C 11,1 C 88 % 1003,9 hPa 0,2 l/m 0 min 2 min 21 W/m 12,9 km/h (3 Bft) 97,87 %
05.10.2021 16:28 14,6 C 13,3 C 11,1 C 88 % 1003,9 hPa 0,2 l/m 0 min 2 min 15 W/m 9,7 km/h (2 Bft) 97,87 %
05.10.2021 16:30 14,6 C 13,3 C 11,1 C 89 % 1003,9 hPa 0,0 l/m 0 min 2 min 13 W/m 6,4 km/h (2 Bft) 97,87 %
05.10.2021 16:32 14,6 C 12,8 C 11,1 C 89 % 1003,9 hPa 0,2 l/m 0 min 2 min 12 W/m 12,9 km/h (3 Bft) 97,83 %
05.10.2021 16:34 14,6 C 12,8 C 11,1 C 89 % 1003,9 hPa 0,0 l/m 0 min 2 min 15 W/m 6,4 km/h (2 Bft) 97,87 %
05.10.2021 16:36 14,5 C 12,8 C 11,1 C 89 % 1004,0 hPa 0,2 l/m 0 min 2 min 18 W/m 3,2 km/h (1 Bft) 97,87 %
05.10.2021 16:38 14,5 C 12,8 C 11,1 C 89 % 1004,0 hPa 0,0 l/m 0 min 2 min 22 W/m 3,2 km/h (1 Bft) 95,74 %
05.10.2021 16:40 14,5 C 13,3 C 11,1 C 90 % 1004,0 hPa 0,0 l/m 0 min 2 min 22 W/m 12,9 km/h (3 Bft) 97,87 %
05.10.2021 16:42 14,5 C 13,3 C 11,1 C 90 % 1004,0 hPa 0,2 l/m 0 min 2 min 20 W/m 12,9 km/h (3 Bft) 100,00 %
05.10.2021 16:44 14,4 C 13,3 C 11,1 C 90 % 1004,0 hPa 0,2 l/m 0 min 2 min 20 W/m 6,4 km/h (2 Bft) 97,83 %
05.10.2021 16:46 14,4 C 13,3 C 11,1 C 90 % 1003,9 hPa 0,0 l/m 0 min 2 min 21 W/m 12,9 km/h (3 Bft) 97,87 %
05.10.2021 16:48 14,4 C 12,8 C 11,1 C 90 % 1004,0 hPa 0,0 l/m 0 min 2 min 22 W/m 9,7 km/h (2 Bft) 100,00 %
05.10.2021 16:50 14,4 C 12,8 C 11,1 C 90 % 1004,0 hPa 0,2 l/m 0 min 2 min 25 W/m 6,4 km/h (2 Bft) 100,00 %
05.10.2021 16:52 14,4 C 12,8 C 11,1 C 91 % 1004,0 hPa 0,0 l/m 0 min 2 min 23 W/m 6,4 km/h (2 Bft) 100,00 %
05.10.2021 16:54 14,3 C 12,8 C 11,1 C 91 % 1004,0 hPa 0,2 l/m 0 min 2 min 24 W/m 6,4 km/h (2 Bft) 97,87 %
05.10.2021 16:56 14,3 C 12,8 C 11,1 C 91 % 1003,9 hPa 0,0 l/m 0 min 2 min 25 W/m 16,1 km/h (3 Bft) 97,83 %
05.10.2021 16:58 14,2 C 12,8 C 11,1 C 91 % 1004,0 hPa 0,2 l/m 0 min 2 min 23 W/m 6,4 km/h (2 Bft) 97,87 %
05.10.2021 17:00 14,2 C 12,8 C 11,1 C 91 % 1004,1 hPa 0,0 l/m 0 min 2 min 24 W/m 6,4 km/h (2 Bft) 97,87 %
05.10.2021 17:02 14,2 C 12,8 C 11,1 C 92 % 1004,0 hPa 0,2 l/m 0 min 2 min 31 W/m 12,9 km/h (3 Bft) 97,87 %
05.10.2021 17:04 14,2 C 12,8 C 11,1 C 92 % 1004,1 hPa 0,0 l/m 0 min 2 min 30 W/m 6,4 km/h (2 Bft) 97,87 %
05.10.2021 17:06 14,2 C 12,8 C 11,1 C 92 % 1004,0 hPa 0,0 l/m 0 min 2 min 32 W/m 6,4 km/h (2 Bft) 97,87 %
05.10.2021 17:08 14,2 C 12,8 C 11,1 C 92 % 1004,0 hPa 0,0 l/m 0 min 2 min 31 W/m 9,7 km/h (2 Bft) 97,87 %
05.10.2021 17:10 14,2 C 12,8 C 11,1 C 92 % 1004,0 hPa 0,0 l/m 0 min 2 min 31 W/m 16,1 km/h (3 Bft) 97,83 %
05.10.2021 17:12 14,2 C 12,8 C 11,1 C 92 % 1004,0 hPa 0,0 l/m 0 min 2 min 30 W/m 6,4 km/h (2 Bft) 97,87 %
05.10.2021 17:14 14,2 C 12,8 C 11,1 C 92 % 1004,0 hPa 0,0 l/m 0 min 2 min 32 W/m 9,7 km/h (2 Bft) 97,87 %
05.10.2021 17:16 14,2 C 12,8 C 11,1 C 92 % 1004,0 hPa 0,0 l/m 0 min 0 min 32 W/m 6,4 km/h (2 Bft) 97,87 %
05.10.2021 17:18 14,2 C 12,8 C 11,1 C 93 % 1004,0 hPa 0,0 l/m 0 min 0 min 28 W/m 12,9 km/h (3 Bft) 95,74 %
05.10.2021 17:20 14,2 C 12,8 C 11,1 C 93 % 1003,9 hPa 0,0 l/m 0 min 0 min 29 W/m 16,1 km/h (3 Bft) 95,65 %
05.10.2021 17:22 14,2 C 12,8 C 11,1 C 93 % 1004,0 hPa 0,0 l/m 0 min 0 min 38 W/m 6,4 km/h (2 Bft) 93,62 %
05.10.2021 17:24 14,2 C 13,3 C 11,1 C 93 % 1004,0 hPa 0,0 l/m 0 min 2 min 42 W/m 6,4 km/h (2 Bft) 97,87 %
05.10.2021 17:26 14,2 C 13,3 C 11,1 C 93 % 1004,0 hPa 0,0 l/m 0 min 0 min 46 W/m 6,4 km/h (2 Bft) 97,87 %
05.10.2021 17:28 14,2 C 13,3 C 11,1 C 93 % 1003,9 hPa 0,0 l/m 0 min 0 min 47 W/m 6,4 km/h (2 Bft) 97,87 %
05.10.2021 17:30 14,2 C 13,3 C 11,1 C 93 % 1003,9 hPa 0,0 l/m 0 min 0 min 41 W/m 6,4 km/h (2 Bft) 97,87 %
05.10.2021 17:32 14,2 C 13,3 C 11,1 C 93 % 1003,8 hPa 0,0 l/m 0 min 0 min 43 W/m 6,4 km/h (2 Bft) 97,83 %
05.10.2021 17:34 14,1 C 13,3 C 11,1 C 93 % 1003,9 hPa 0,0 l/m 0 min 0 min 38 W/m 12,9 km/h (3 Bft) 97,87 %
05.10.2021 17:36 14,1 C 13,3 C 11,1 C 93 % 1004,0 hPa 0,0 l/m 0 min 0 min 38 W/m 16,1 km/h (3 Bft) 97,87 %
05.10.2021 17:38 14,1 C 13,3 C 11,1 C 93 % 1004,0 hPa 0,0 l/m 0 min 0 min 51 W/m 12,9 km/h (3 Bft) 97,87 %
05.10.2021 17:40 14,1 C 13,3 C 11,1 C 94 % 1003,9 hPa 0,0 l/m 0 min 2 min 48 W/m 12,9 km/h (3 Bft) 100,00 %
05.10.2021 17:42 14,1 C 13,3 C 11,7 C 94 % 1004,1 hPa 0,2 l/m 0 min 2 min 48 W/m 12,9 km/h (3 Bft) 97,87 %
05.10.2021 17:44 14,1 C 13,3 C 11,7 C 94 % 1004,1 hPa 0,0 l/m 0 min 0 min 53 W/m 12,9 km/h (3 Bft) 100,00 %
05.10.2021 17:46 14,2 C 13,3 C 11,7 C 94 % 1004,1 hPa 0,0 l/m 0 min 0 min 60 W/m 9,7 km/h (2 Bft) 100,00 %
05.10.2021 17:48 14,2 C 13,3 C 11,7 C 94 % 1004,2 hPa 0,0 l/m 0 min 0 min 64 W/m 12,9 km/h (3 Bft) 100,00 %
05.10.2021 17:50 14,2 C 13,3 C 11,7 C 94 % 1004,2 hPa 0,0 l/m 0 min 2 min 63 W/m 29,0 km/h (5 Bft) 97,87 %
05.10.2021 17:52 14,2 C 13,3 C 11,7 C 94 % 1004,2 hPa 0,0 l/m 0 min 2 min 68 W/m 22,5 km/h (4 Bft) 100,00 %
05.10.2021 17:54 14,2 C 13,3 C 11,7 C 94 % 1004,3 hPa 0,0 l/m 0 min 2 min 76 W/m 25,7 km/h (4 Bft) 97,87 %
05.10.2021 17:56 14,2 C 13,3 C 11,7 C 94 % 1004,3 hPa 0,0 l/m 2 min 2 min 83 W/m 22,5 km/h (4 Bft) 97,83 %
05.10.2021 17:58 14,2 C 13,9 C 11,7 C 94 % 1004,3 hPa 0,0 l/m 0 min 0 min 77 W/m 25,7 km/h (4 Bft) 97,87 %
05.10.2021 18:00 14,2 C 13,9 C 11,7 C 94 % 1004,4 hPa 0,0 l/m 0 min 2 min 71 W/m 16,1 km/h (3 Bft) 97,87 %
05.10.2021 18:02 14,2 C 13,9 C 11,7 C 94 % 1004,4 hPa 0,0 l/m 0 min 2 min 65 W/m 25,7 km/h (4 Bft) 100,00 %
05.10.2021 18:04 14,2 C 13,9 C 11,7 C 94 % 1004,3 hPa 0,0 l/m 0 min 2 min 69 W/m 22,5 km/h (4 Bft) 97,87 %
05.10.2021 18:08 14,2 C 13,9 C 11,7 C 94 % 1004,4 hPa 0,0 l/m 4 min 0 min 81 W/m 19,3 km/h (3 Bft) 95,56 %
05.10.2021 18:10 14,2 C 13,9 C 11,1 C 93 % 1004,5 hPa 0,0 l/m 2 min 0 min 78 W/m 16,1 km/h (3 Bft) 95,74 %
05.10.2021 18:12 14,1 C 13,3 C 11,1 C 93 % 1004,6 hPa 0,0 l/m 2 min 0 min 68 W/m 12,9 km/h (3 Bft) 93,62 %
05.10.2021 18:14 14,0 C 13,3 C 11,1 C 93 % 1004,6 hPa 0,0 l/m 0 min 0 min 56 W/m 25,7 km/h (4 Bft) 93,62 %
05.10.2021 18:16 14,0 C 13,3 C 11,1 C 92 % 1004,6 hPa 0,0 l/m 2 min 0 min 55 W/m 29,0 km/h (5 Bft) 95,74 %
05.10.2021 18:18 13,9 C 13,3 C 11,1 C 92 % 1004,5 hPa 0,0 l/m 0 min 0 min 51 W/m 16,1 km/h (3 Bft) 95,74 %
05.10.2021 18:20 13,9 C 13,3 C 11,1 C 92 % 1004,6 hPa 0,0 l/m 0 min 0 min 47 W/m 16,1 km/h (3 Bft) 95,65 %
05.10.2021 18:22 13,9 C 13,3 C 11,1 C 92 % 1004,6 hPa 0,0 l/m 0 min 0 min 37 W/m 12,9 km/h (3 Bft) 95,74 %
05.10.2021 18:24 13,9 C 12,8 C 11,1 C 91 % 1004,6 hPa 0,0 l/m 0 min 0 min 42 W/m 9,7 km/h (2 Bft) 95,74 %
05.10.2021 18:26 13,9 C 12,8 C 11,1 C 91 % 1004,7 hPa 0,0 l/m 2 min 0 min 47 W/m 6,4 km/h (2 Bft) 95,74 %
05.10.2021 18:28 13,9 C 13,3 C 11,1 C 91 % 1004,6 hPa 0,0 l/m 2 min 0 min 48 W/m 12,9 km/h (3 Bft) 93,62 %
05.10.2021 18:30 13,9 C 13,3 C 11,1 C 91 % 1004,6 hPa 0,0 l/m 2 min 0 min 52 W/m 16,1 km/h (3 Bft) 93,48 %
05.10.2021 18:32 13,9 C 13,3 C 11,1 C 91 % 1004,7 hPa 0,0 l/m 2 min 0 min 53 W/m 9,7 km/h (2 Bft) 93,62 %
05.10.2021 18:34 13,9 C 13,3 C 11,1 C 91 % 1004,7 hPa 0,0 l/m 2 min 0 min 52 W/m 12,9 km/h (3 Bft) 93,62 %
05.10.2021 18:36 13,9 C 13,3 C 11,1 C 91 % 1004,8 hPa 0,0 l/m 2 min 0 min 49 W/m 16,1 km/h (3 Bft) 95,74 %
05.10.2021 18:38 13,8 C 13,3 C 11,1 C 91 % 1004,9 hPa 0,0 l/m 2 min 0 min 49 W/m 16,1 km/h (3 Bft) 97,87 %
05.10.2021 18:40 13,8 C 12,8 C 10,6 C 90 % 1004,9 hPa 0,0 l/m 2 min 0 min 43 W/m 16,1 km/h (3 Bft) 97,87 %
05.10.2021 18:42 13,8 C 12,8 C 10,6 C 90 % 1004,9 hPa 0,0 l/m 2 min 0 min 37 W/m 12,9 km/h (3 Bft) 95,65 %
05.10.2021 18:44 13,8 C 12,8 C 10,6 C 89 % 1004,9 hPa 0,0 l/m 2 min 0 min 33 W/m 12,9 km/h (3 Bft) 97,87 %
05.10.2021 18:46 13,7 C 12,8 C 10,6 C 89 % 1004,9 hPa 0,0 l/m 2 min 0 min 32 W/m 12,9 km/h (3 Bft) 97,87 %
05.10.2021 18:48 13,7 C 12,8 C 10,6 C 89 % 1005,0 hPa 0,0 l/m 2 min 0 min 29 W/m 9,7 km/h (2 Bft) 95,74 %
05.10.2021 18:50 13,6 C 12,8 C 10,6 C 89 % 1004,9 hPa 0,0 l/m 2 min 0 min 26 W/m 6,4 km/h (2 Bft) 97,87 %
05.10.2021 18:52 13,6 C 12,8 C 10,6 C 89 % 1005,0 hPa 0,0 l/m 0 min 0 min 15 W/m 16,1 km/h (3 Bft) 97,87 %
05.10.2021 18:54 13,6 C 12,8 C 10,6 C 89 % 1004,9 hPa 0,0 l/m 0 min 0 min 18 W/m 12,9 km/h (3 Bft) 95,65 %
05.10.2021 18:56 13,5 C 12,2 C 10,6 C 89 % 1005,0 hPa 0,0 l/m 0 min 0 min 15 W/m 12,9 km/h (3 Bft) 97,87 %
05.10.2021 18:58 13,5 C 12,2 C 10,6 C 89 % 1005,0 hPa 0,0 l/m 0 min 0 min 11 W/m 16,1 km/h (3 Bft) 97,87 %
05.10.2021 19:00 13,5 C 12,2 C 10,6 C 89 % 1005,0 hPa 0,0 l/m 0 min 0 min 9 W/m 9,7 km/h (2 Bft) 97,87 %
05.10.2021 19:02 13,4 C 12,2 C 10,6 C 89 % 1005,0 hPa 0,0 l/m 0 min 0 min 7 W/m 16,1 km/h (3 Bft) 97,96 %
05.10.2021 19:04 13,4 C 12,2 C 10,6 C 89 % 1005,0 hPa 0,0 l/m 0 min 0 min 5 W/m 6,4 km/h (2 Bft) 97,87 %
05.10.2021 19:06 13,4 C 12,2 C 10,6 C 89 % 1005,1 hPa 0,0 l/m 0 min 0 min 5 W/m 12,9 km/h (3 Bft) 100,00 %
05.10.2021 19:08 13,3 C 12,2 C 10,6 C 89 % 1005,1 hPa 0,0 l/m 0 min 0 min 4 W/m 16,1 km/h (3 Bft) 100,00 %
05.10.2021 19:10 13,3 C 12,2 C 10,6 C 89 % 1005,1 hPa 0,0 l/m 0 min 0 min 0 W/m 12,9 km/h (3 Bft) 100,00 %
05.10.2021 19:12 13,2 C 12,2 C 10,6 C 89 % 1005,2 hPa 0,0 l/m 0 min 0 min 0 W/m 12,9 km/h (3 Bft) 97,87 %
05.10.2021 19:14 13,1 C 11,7 C 10,0 C 89 % 1005,2 hPa 0,0 l/m 0 min 0 min 0 W/m 16,1 km/h (3 Bft) 100,00 %
05.10.2021 19:16 13,1 C 12,2 C 10,0 C 90 % 1005,2 hPa 0,0 l/m 0 min 0 min 0 W/m 16,1 km/h (3 Bft) 100,00 %
05.10.2021 19:18 13,0 C 12,2 C 10,0 C 89 % 1005,2 hPa 0,0 l/m 0 min 0 min 0 W/m 19,3 km/h (3 Bft) 97,83 %
05.10.2021 19:20 13,0 C 12,2 C 10,0 C 90 % 1005,3 hPa 0,0 l/m 0 min 0 min 0 W/m 12,9 km/h (3 Bft) 100,00 %
05.10.2021 19:22 13,0 C 11,7 C 10,0 C 90 % 1005,3 hPa 0,0 l/m 0 min 0 min 0 W/m 12,9 km/h (3 Bft) 97,87 %
05.10.2021 19:24 13,0 C 11,7 C 10,0 C 90 % 1005,3 hPa 0,0 l/m 0 min 0 min 0 W/m 29,0 km/h (5 Bft) 97,87 %
05.10.2021 19:26 13,0 C 11,7 C 10,0 C 90 % 1005,4 hPa 0,0 l/m 0 min 0 min 0 W/m 12,9 km/h (3 Bft) 97,87 %
05.10.2021 19:28 12,9 C 11,7 C 10,0 C 90 % 1005,4 hPa 0,0 l/m 0 min 0 min 0 W/m 19,3 km/h (3 Bft) 97,87 %
05.10.2021 19:30 12,9 C 11,7 C 10,0 C 90 % 1005,5 hPa 0,0 l/m 0 min 0 min 0 W/m 12,9 km/h (3 Bft) 97,83 %
05.10.2021 19:32 12,9 C 11,7 C 10,0 C 90 % 1005,5 hPa 0,0 l/m 0 min 0 min 0 W/m 16,1 km/h (3 Bft) 95,74 %
05.10.2021 19:34 12,9 C 11,7 C 10,0 C 90 % 1005,5 hPa 0,0 l/m 0 min 0 min 0 W/m 22,5 km/h (4 Bft) 95,74 %
05.10.2021 19:36 12,9 C 11,7 C 10,0 C 90 % 1005,5 hPa 0,0 l/m 0 min 0 min 0 W/m 12,9 km/h (3 Bft) 97,87 %
05.10.2021 19:38 12,8 C 11,7 C 10,0 C 90 % 1005,6 hPa 0,0 l/m 0 min 0 min 0 W/m 12,9 km/h (3 Bft) 97,87 %
05.10.2021 19:40 12,8 C 11,7 C 10,0 C 90 % 1005,6 hPa 0,0 l/m 0 min 0 min 0 W/m 19,3 km/h (3 Bft) 97,96 %
05.10.2021 19:42 12,8 C 11,7 C 10,0 C 90 % 1005,6 hPa 0,0 l/m 0 min 0 min 0 W/m 12,9 km/h (3 Bft) 97,83 %
05.10.2021 19:44 12,8 C 11,7 C 10,0 C 90 % 1005,7 hPa 0,0 l/m 0 min 0 min 0 W/m 32,2 km/h (5 Bft) 97,87 %
05.10.2021 19:46 12,8 C 11,7 C 10,0 C 90 % 1005,7 hPa 0,0 l/m 0 min 0 min 0 W/m 16,1 km/h (3 Bft) 97,87 %
05.10.2021 19:48 12,8 C 11,7 C 10,0 C 90 % 1005,7 hPa 0,0 l/m 0 min 0 min 0 W/m 9,7 km/h (2 Bft) 97,87 %
05.10.2021 19:50 12,7 C 11,7 C 10,0 C 90 % 1005,7 hPa 0,0 l/m 0 min 0 min 0 W/m 9,7 km/h (2 Bft) 97,87 %
05.10.2021 19:52 12,7 C 11,7 C 10,0 C 90 % 1005,7 hPa 0,0 l/m 0 min 0 min 0 W/m 16,1 km/h (3 Bft) 97,87 %
05.10.2021 19:54 12,6 C 11,7 C 10,0 C 90 % 1005,8 hPa 0,0 l/m 0 min 0 min 0 W/m 16,1 km/h (3 Bft) 97,83 %
05.10.2021 19:56 12,6 C 11,7 C 10,0 C 90 % 1005,8 hPa 0,0 l/m 0 min 0 min 0 W/m 9,7 km/h (2 Bft) 93,62 %
05.10.2021 19:58 12,6 C 11,7 C 10,0 C 90 % 1005,8 hPa 0,0 l/m 0 min 0 min 0 W/m 12,9 km/h (3 Bft) 95,74 %
05.10.2021 20:00 12,6 C 11,7 C 10,0 C 90 % 1005,8 hPa 0,0 l/m 0 min 0 min 0 W/m 16,1 km/h (3 Bft) 95,74 %
05.10.2021 20:02 12,5 C 11,7 C 10,0 C 90 % 1005,8 hPa 0,0 l/m 0 min 0 min 0 W/m 16,1 km/h (3 Bft) 95,74 %
05.10.2021 20:04 12,5 C 11,7 C 10,0 C 90 % 1005,9 hPa 0,0 l/m 0 min 0 min 0 W/m 22,5 km/h (4 Bft) 97,87 %
05.10.2021 20:06 12,5 C 11,7 C 10,0 C 91 % 1005,9 hPa 0,0 l/m 0 min 0 min 0 W/m 16,1 km/h (3 Bft) 97,83 %
05.10.2021 20:08 12,5 C 11,7 C 10,0 C 90 % 1005,9 hPa 0,0 l/m 0 min 0 min 0 W/m 12,9 km/h (3 Bft) 95,74 %
05.10.2021 20:10 12,5 C 11,7 C 10,0 C 90 % 1006,0 hPa 0,0 l/m 0 min 0 min 0 W/m 12,9 km/h (3 Bft) 97,87 %
05.10.2021 20:12 12,4 C 11,7 C 10,0 C 90 % 1006,0 hPa 0,0 l/m 0 min 0 min 0 W/m 9,7 km/h (2 Bft) 93,62 %
05.10.2021 20:14 12,4 C 11,1 C 10,0 C 90 % 1006,0 hPa 0,0 l/m 0 min 0 min 0 W/m 6,4 km/h (2 Bft) 97,87 %
05.10.2021 20:16 12,4 C 11,1 C 10,0 C 91 % 1006,1 hPa 0,0 l/m 0 min 0 min 0 W/m 6,4 km/h (2 Bft) 95,74 %
05.10.2021 20:18 12,4 C 11,1 C 10,0 C 91 % 1006,1 hPa 0,0 l/m 0 min 0 min 0 W/m 6,4 km/h (2 Bft) 95,65 %
05.10.2021 20:20 12,3 C 11,1 C 10,0 C 91 % 1006,1 hPa 0,0 l/m 0 min 0 min 0 W/m 9,7 km/h (2 Bft) 97,87 %
05.10.2021 20:22 12,3 C 11,1 C 10,0 C 91 % 1006,2 hPa 0,0 l/m 0 min 0 min 0 W/m 6,4 km/h (2 Bft) 97,87 %
05.10.2021 20:24 12,3 C 11,1 C 10,0 C 91 % 1006,1 hPa 0,0 l/m 0 min 0 min 0 W/m 9,7 km/h (2 Bft) 97,87 %
05.10.2021 20:26 12,3 C 11,1 C 10,0 C 91 % 1006,1 hPa 0,0 l/m 0 min 0 min 0 W/m 12,9 km/h (3 Bft) 100,00 %
05.10.2021 20:28 12,3 C 11,1 C 10,0 C 91 % 1006,1 hPa 0,0 l/m 0 min 0 min 0 W/m 9,7 km/h (2 Bft) 97,87 %
05.10.2021 20:30 12,2 C 11,1 C 9,5 C 91 % 1006,1 hPa 0,0 l/m 0 min 0 min 0 W/m 3,2 km/h (1 Bft) 97,83 %
05.10.2021 20:32 12,2 C 11,1 C 9,5 C 91 % 1006,1 hPa 0,0 l/m 0 min 0 min 0 W/m 3,2 km/h (1 Bft) 100,00 %
05.10.2021 20:34 12,1 C 11,1 C 9,5 C 91 % 1006,1 hPa 0,0 l/m 0 min 0 min 0 W/m 3,2 km/h (1 Bft) 100,00 %
05.10.2021 20:36 12,1 C 11,1 C 9,5 C 91 % 1006,2 hPa 0,0 l/m 0 min 0 min 0 W/m 3,2 km/h (1 Bft) 97,87 %
05.10.2021 20:38 12,1 C 11,1 C 9,5 C 91 % 1006,2 hPa 0,0 l/m 0 min 0 min 0 W/m 3,2 km/h (1 Bft) 100,00 %
05.10.2021 20:40 12,1 C 10,6 C 9,5 C 91 % 1006,2 hPa 0,0 l/m 0 min 0 min 0 W/m 9,7 km/h (2 Bft) 100,00 %
05.10.2021 20:42 12,1 C 11,1 C 9,5 C 91 % 1006,2 hPa 0,0 l/m 0 min 0 min 0 W/m 6,4 km/h (2 Bft) 100,00 %
05.10.2021 20:44 12,0 C 10,6 C 9,5 C 91 % 1006,2 hPa 0,0 l/m 0 min 0 min 0 W/m 6,4 km/h (2 Bft) 100,00 %
05.10.2021 20:46 12,0 C 10,6 C 9,5 C 91 % 1006,3 hPa 0,0 l/m 0 min 0 min 0 W/m 6,4 km/h (2 Bft) 100,00 %
05.10.2021 20:48 12,0 C 10,6 C 9,5 C 91 % 1006,3 hPa 0,0 l/m 0 min 0 min 0 W/m 6,4 km/h (2 Bft) 100,00 %
05.10.2021 20:50 12,0 C 10,6 C 9,5 C 91 % 1006,3 hPa 0,0 l/m 0 min 0 min 0 W/m 6,4 km/h (2 Bft) 97,87 %
05.10.2021 20:52 11,9 C 10,6 C 9,5 C 91 % 1006,4 hPa 0,0 l/m 0 min 0 min 0 W/m 9,7 km/h (2 Bft) 97,87 %
05.10.2021 20:54 11,9 C 10,6 C 9,5 C 92 % 1006,4 hPa 0,0 l/m 0 min 0 min 0 W/m 16,1 km/h (3 Bft) 97,83 %
05.10.2021 20:56 11,9 C 10,6 C 9,5 C 92 % 1006,4 hPa 0,0 l/m 0 min 0 min 0 W/m 6,4 km/h (2 Bft) 100,00 %
05.10.2021 20:58 11,9 C 10,6 C 9,5 C 92 % 1006,5 hPa 0,0 l/m 0 min 0 min 0 W/m 9,7 km/h (2 Bft) 100,00 %
05.10.2021 21:00 11,9 C 10,6 C 9,5 C 92 % 1006,5 hPa 0,0 l/m 0 min 0 min 0 W/m 6,4 km/h (2 Bft) 100,00 %
05.10.2021 21:02 11,9 C 10,6 C 9,5 C 92 % 1006,5 hPa 0,0 l/m 0 min 0 min 0 W/m 6,4 km/h (2 Bft) 100,00 %
05.10.2021 21:04 11,9 C 10,6 C 9,5 C 92 % 1006,5 hPa 0,0 l/m 0 min 0 min 0 W/m 9,7 km/h (2 Bft) 100,00 %
05.10.2021 21:06 11,8 C 10,6 C 9,5 C 92 % 1006,6 hPa 0,0 l/m 0 min 0 min 0 W/m 6,4 km/h (2 Bft) 100,00 %
05.10.2021 21:08 11,8 C 10,6 C 9,5 C 92 % 1006,7 hPa 0,0 l/m 0 min 0 min 0 W/m 9,7 km/h (2 Bft) 100,00 %
05.10.2021 21:10 11,8 C 11,1 C 9,5 C 92 % 1006,7 hPa 0,0 l/m 0 min 0 min 0 W/m 3,2 km/h (1 Bft) 100,00 %
05.10.2021 21:12 11,8 C 11,1 C 9,5 C 92 % 1006,7 hPa 0,0 l/m 0 min 0 min 0 W/m 6,4 km/h (2 Bft) 100,00 %
05.10.2021 21:14 11,8 C 11,1 C 9,5 C 92 % 1006,7 hPa 0,0 l/m 0 min 0 min 0 W/m 3,2 km/h (1 Bft) 100,00 %
05.10.2021 21:16 11,8 C 11,1 C 10,0 C 92 % 1006,7 hPa 0,0 l/m 0 min 0 min 0 W/m 3,2 km/h (1 Bft) 97,87 %
05.10.2021 21:18 11,8 C 11,1 C 9,5 C 92 % 1006,8 hPa 0,0 l/m 0 min 0 min 0 W/m 3,2 km/h (1 Bft) 97,83 %
05.10.2021 21:20 11,8 C 11,1 C 10,0 C 92 % 1006,8 hPa 0,0 l/m 0 min 0 min 0 W/m 6,4 km/h (2 Bft) 95,74 %
05.10.2021 21:22 11,8 C 11,1 C 10,0 C 93 % 1006,8 hPa 0,0 l/m 0 min 0 min 0 W/m 6,4 km/h (2 Bft) 95,74 %
05.10.2021 21:24 11,8 C 11,1 C 10,0 C 93 % 1006,8 hPa 0,0 l/m 0 min 0 min 0 W/m 6,4 km/h (2 Bft) 95,74 %
05.10.2021 21:26 11,8 C 11,1 C 10,0 C 93 % 1006,8 hPa 0,0 l/m 0 min 0 min 0 W/m 6,4 km/h (2 Bft) 97,87 %
05.10.2021 21:28 11,8 C 11,1 C 10,0 C 93 % 1006,9 hPa 0,0 l/m 0 min 0 min 0 W/m 6,4 km/h (2 Bft) 97,83 %
05.10.2021 21:30 11,8 C 11,1 C 10,0 C 93 % 1006,9 hPa 0,0 l/m 0 min 0 min 0 W/m 6,4 km/h (2 Bft) 95,74 %
05.10.2021 21:32 11,8 C 11,1 C 10,0 C 93 % 1006,9 hPa 0,0 l/m 0 min 0 min 0 W/m 12,9 km/h (3 Bft) 97,87 %
05.10.2021 21:34 11,8 C 11,1 C 10,0 C 93 % 1006,9 hPa 0,0 l/m 0 min 0 min 0 W/m 3,2 km/h (1 Bft) 97,87 %
05.10.2021 21:36 11,8 C 11,1 C 10,0 C 93 % 1006,9 hPa 0,0 l/m 0 min 0 min 0 W/m 6,4 km/h (2 Bft) 97,87 %
05.10.2021 21:38 11,8 C 11,1 C 10,0 C 93 % 1006,9 hPa 0,0 l/m 0 min 0 min 0 W/m 3,2 km/h (1 Bft) 97,87 %
05.10.2021 21:40 11,8 C 11,1 C 10,0 C 92 % 1006,9 hPa 0,0 l/m 0 min 0 min 0 W/m 9,7 km/h (2 Bft) 93,48 %
05.10.2021 21:42 11,8 C 11,1 C 10,0 C 92 % 1006,9 hPa 0,0 l/m 0 min 0 min 0 W/m 6,4 km/h (2 Bft) 97,87 %
05.10.2021 21:44 11,9 C 11,1 C 10,0 C 92 % 1006,9 hPa 0,0 l/m 0 min 0 min 0 W/m 6,4 km/h (2 Bft) 97,87 %
05.10.2021 21:46 11,9 C 11,1 C 10,0 C 92 % 1007,0 hPa 0,0 l/m 0 min 0 min 0 W/m 9,7 km/h (2 Bft) 97,87 %
05.10.2021 21:48 11,9 C 11,1 C 10,0 C 92 % 1007,0 hPa 0,0 l/m 0 min 0 min 0 W/m 3,2 km/h (1 Bft) 91,49 %
05.10.2021 21:50 11,9 C 11,1 C 10,0 C 92 % 1007,0 hPa 0,0 l/m 0 min 0 min 0 W/m 12,9 km/h (3 Bft) 93,62 %
05.10.2021 21:52 11,9 C 11,1 C 10,0 C 92 % 1007,1 hPa 0,0 l/m 0 min 0 min 0 W/m 9,7 km/h (2 Bft) 93,48 %
05.10.2021 21:54 11,9 C 11,1 C 10,0 C 92 % 1007,1 hPa 0,0 l/m 0 min 0 min 0 W/m 6,4 km/h (2 Bft) 93,62 %
05.10.2021 21:56 11,9 C 11,7 C 10,0 C 92 % 1007,2 hPa 0,0 l/m 0 min 0 min 0 W/m 12,9 km/h (3 Bft) 93,62 %
05.10.2021 21:58 11,9 C 11,7 C 10,0 C 92 % 1007,1 hPa 0,0 l/m 0 min 0 min 0 W/m 9,7 km/h (2 Bft) 91,49 %
05.10.2021 22:00 11,9 C 11,7 C 10,0 C 92 % 1007,2 hPa 0,0 l/m 0 min 0 min 0 W/m 19,3 km/h (3 Bft) 93,62 %
05.10.2021 22:02 12,0 C 11,7 C 10,0 C 92 % 1007,3 hPa 0,0 l/m 0 min 0 min 0 W/m 16,1 km/h (3 Bft) 87,23 %
05.10.2021 22:04 12,0 C 11,7 C 10,0 C 92 % 1007,3 hPa 0,0 l/m 0 min 0 min 0 W/m 12,9 km/h (3 Bft) 93,48 %
05.10.2021 22:06 12,0 C 11,7 C 10,0 C 92 % 1007,2 hPa 0,0 l/m 0 min 0 min 0 W/m 22,5 km/h (4 Bft) 91,49 %
05.10.2021 22:08 12,0 C 11,7 C 10,0 C 92 % 1007,3 hPa 0,0 l/m 0 min 0 min 0 W/m 9,7 km/h (2 Bft) 93,62 %
05.10.2021 22:10 12,0 C 11,7 C 10,0 C 92 % 1007,3 hPa 0,0 l/m 0 min 0 min 0 W/m 12,9 km/h (3 Bft) 93,62 %
05.10.2021 22:12 12,0 C 11,7 C 10,0 C 92 % 1007,3 hPa 0,0 l/m 0 min 0 min 0 W/m 9,7 km/h (2 Bft) 93,62 %
05.10.2021 22:14 12,1 C 11,7 C 10,0 C 92 % 1007,3 hPa 0,0 l/m 0 min 0 min 0 W/m 12,9 km/h (3 Bft) 95,74 %
05.10.2021 22:16 12,1 C 11,7 C 10,0 C 92 % 1007,4 hPa 0,0 l/m 0 min 0 min 0 W/m 12,9 km/h (3 Bft) 95,65 %
05.10.2021 22:18 12,1 C 11,7 C 10,0 C 92 % 1007,5 hPa 0,0 l/m 0 min 0 min 0 W/m 19,3 km/h (3 Bft) 95,74 %
05.10.2021 22:20 12,1 C 11,7 C 10,0 C 92 % 1007,4 hPa 0,0 l/m 0 min 0 min 0 W/m 16,1 km/h (3 Bft) 97,87 %
05.10.2021 22:22 12,1 C 11,7 C 10,0 C 92 % 1007,5 hPa 0,0 l/m 0 min 0 min 0 W/m 19,3 km/h (3 Bft) 97,87 %
05.10.2021 22:24 12,1 C 11,7 C 10,0 C 91 % 1007,5 hPa 0,0 l/m 0 min 0 min 0 W/m 9,7 km/h (2 Bft) 95,74 %
05.10.2021 22:26 12,1 C 11,7 C 10,0 C 91 % 1007,6 hPa 0,0 l/m 0 min 0 min 0 W/m 9,7 km/h (2 Bft) 95,74 %
05.10.2021 22:28 12,1 C 11,7 C 10,0 C 91 % 1007,6 hPa 0,0 l/m 0 min 0 min 0 W/m 6,4 km/h (2 Bft) 97,87 %
05.10.2021 22:30 12,1 C 11,7 C 10,0 C 91 % 1007,6 hPa 0,0 l/m 0 min 0 min 0 W/m 12,9 km/h (3 Bft) 97,83 %
05.10.2021 22:32 12,1 C 11,7 C 10,0 C 91 % 1007,5 hPa 0,0 l/m 0 min 0 min 0 W/m 12,9 km/h (3 Bft) 100,00 %
05.10.2021 22:34 12,1 C 11,7 C 10,0 C 91 % 1007,6 hPa 0,0 l/m 0 min 0 min 0 W/m 25,7 km/h (4 Bft) 100,00 %
05.10.2021 22:36 12,2 C 11,7 C 10,0 C 91 % 1007,6 hPa 0,0 l/m 0 min 0 min 0 W/m 25,7 km/h (4 Bft) 100,00 %
05.10.2021 22:38 12,2 C 11,7 C 10,0 C 91 % 1007,6 hPa 0,0 l/m 0 min 0 min 0 W/m 12,9 km/h (3 Bft) 100,00 %
05.10.2021 22:40 12,2 C 11,7 C 10,0 C 91 % 1007,6 hPa 0,0 l/m 0 min 0 min 0 W/m 12,9 km/h (3 Bft) 100,00 %
05.10.2021 22:42 12,2 C 11,7 C 10,0 C 91 % 1007,7 hPa 0,0 l/m 0 min 0 min 0 W/m 12,9 km/h (3 Bft) 100,00 %
05.10.2021 22:44 12,2 C 11,7 C 10,0 C 91 % 1007,7 hPa 0,0 l/m 0 min 0 min 0 W/m 22,5 km/h (4 Bft) 100,00 %
05.10.2021 22:46 12,3 C 11,7 C 10,0 C 91 % 1007,7 hPa 0,0 l/m 0 min 0 min 0 W/m 12,9 km/h (3 Bft) 97,87 %
05.10.2021 22:48 12,3 C 11,7 C 10,0 C 90 % 1007,8 hPa 0,0 l/m 0 min 0 min 0 W/m 22,5 km/h (4 Bft) 100,00 %
05.10.2021 22:50 12,3 C 11,7 C 10,6 C 90 % 1007,8 hPa 0,0 l/m 0 min 0 min 0 W/m 16,1 km/h (3 Bft) 100,00 %
05.10.2021 22:52 12,3 C 11,7 C 10,6 C 90 % 1007,9 hPa 0,0 l/m 0 min 0 min 0 W/m 19,3 km/h (3 Bft) 100,00 %
05.10.2021 22:54 12,3 C 11,7 C 10,6 C 90 % 1007,9 hPa 0,0 l/m 0 min 0 min 0 W/m 25,7 km/h (4 Bft) 100,00 %
05.10.2021 22:56 12,3 C 11,7 C 10,6 C 90 % 1007,9 hPa 0,0 l/m 0 min 0 min 0 W/m 22,5 km/h (4 Bft) 100,00 %
05.10.2021 22:58 12,3 C 11,7 C 10,6 C 90 % 1007,9 hPa 0,0 l/m 0 min 0 min 0 W/m 16,1 km/h (3 Bft) 100,00 %
05.10.2021 23:00 12,3 C 11,7 C 10,6 C 90 % 1008,0 hPa 0,0 l/m 0 min 0 min 0 W/m 16,1 km/h (3 Bft) 100,00 %
05.10.2021 23:02 12,3 C 11,7 C 10,6 C 89 % 1008,0 hPa 0,0 l/m 0 min 0 min 0 W/m 19,3 km/h (3 Bft) 97,87 %
05.10.2021 23:04 12,3 C 11,7 C 10,6 C 89 % 1008,0 hPa 0,0 l/m 0 min 0 min 0 W/m 19,3 km/h (3 Bft) 100,00 %
05.10.2021 23:06 12,3 C 11,7 C 10,6 C 89 % 1008,0 hPa 0,0 l/m 0 min 0 min 0 W/m 29,0 km/h (5 Bft) 100,00 %
05.10.2021 23:08 12,3 C 11,7 C 10,6 C 89 % 1008,0 hPa 0,0 l/m 0 min 0 min 0 W/m 12,9 km/h (3 Bft) 100,00 %
05.10.2021 23:10 12,3 C 11,7 C 10,6 C 89 % 1008,1 hPa 0,0 l/m 0 min 0 min 0 W/m 12,9 km/h (3 Bft) 100,00 %
05.10.2021 23:12 12,3 C 11,7 C 10,6 C 89 % 1008,1 hPa 0,0 l/m 0 min 0 min 0 W/m 19,3 km/h (3 Bft) 100,00 %
05.10.2021 23:14 12,3 C 11,7 C 10,6 C 89 % 1008,1 hPa 0,0 l/m 0 min 0 min 0 W/m 22,5 km/h (4 Bft) 100,00 %
05.10.2021 23:16 12,3 C 11,7 C 10,6 C 89 % 1008,1 hPa 0,0 l/m 0 min 0 min 0 W/m 19,3 km/h (3 Bft) 100,00 %
05.10.2021 23:18 12,4 C 11,7 C 10,6 C 89 % 1008,1 hPa 0,0 l/m 0 min 0 min 0 W/m 12,9 km/h (3 Bft) 100,00 %
05.10.2021 23:20 12,4 C 11,7 C 10,6 C 89 % 1008,1 hPa 0,0 l/m 0 min 0 min 0 W/m 12,9 km/h (3 Bft) 97,87 %
05.10.2021 23:22 12,4 C 11,7 C 10,6 C 89 % 1008,1 hPa 0,0 l/m 0 min 0 min 0 W/m 19,3 km/h (3 Bft) 100,00 %
05.10.2021 23:24 12,3 C 11,7 C 10,6 C 89 % 1008,2 hPa 0,0 l/m 0 min 0 min 0 W/m 19,3 km/h (3 Bft) 100,00 %
05.10.2021 23:26 12,3 C 11,7 C 10,6 C 89 % 1008,2 hPa 0,0 l/m 0 min 0 min 0 W/m 9,7 km/h (2 Bft) 100,00 %
05.10.2021 23:28 12,3 C 11,7 C 10,6 C 89 % 1008,3 hPa 0,0 l/m 0 min 0 min 0 W/m 16,1 km/h (3 Bft) 100,00 %
05.10.2021 23:30 12,3 C 11,7 C 10,6 C 89 % 1008,3 hPa 0,0 l/m 0 min 0 min 0 W/m 22,5 km/h (4 Bft) 100,00 %
05.10.2021 23:32 12,3 C 11,7 C 10,6 C 89 % 1008,3 hPa 0,0 l/m 0 min 0 min 0 W/m 12,9 km/h (3 Bft) 100,00 %
05.10.2021 23:34 12,3 C 11,7 C 10,6 C 89 % 1008,3 hPa 0,0 l/m 0 min 0 min 0 W/m 16,1 km/h (3 Bft) 100,00 %
05.10.2021 23:36 12,3 C 11,7 C 10,6 C 89 % 1008,3 hPa 0,0 l/m 0 min 0 min 0 W/m 16,1 km/h (3 Bft) 100,00 %
05.10.2021 23:38 12,4 C 11,7 C 10,6 C 89 % 1008,4 hPa 0,0 l/m 0 min 0 min 0 W/m 19,3 km/h (3 Bft) 100,00 %
05.10.2021 23:40 12,4 C 11,7 C 10,6 C 88 % 1008,4 hPa 0,0 l/m 0 min 0 min 0 W/m 12,9 km/h (3 Bft) 97,83 %
05.10.2021 23:42 12,4 C 11,7 C 10,6 C 88 % 1008,5 hPa 0,0 l/m 0 min 0 min 0 W/m 22,5 km/h (4 Bft) 97,87 %
05.10.2021 23:44 12,4 C 11,7 C 10,6 C 88 % 1008,5 hPa 0,0 l/m 0 min 0 min 0 W/m 16,1 km/h (3 Bft) 97,87 %
05.10.2021 23:46 12,4 C 11,7 C 10,6 C 88 % 1008,4 hPa 0,0 l/m 0 min 0 min 0 W/m 12,9 km/h (3 Bft) 97,87 %
05.10.2021 23:48 12,4 C 11,7 C 10,6 C 88 % 1008,5 hPa 0,0 l/m 0 min 0 min 0 W/m 16,1 km/h (3 Bft) 95,74 %
05.10.2021 23:50 12,4 C 11,7 C 10,6 C 88 % 1008,5 hPa 0,0 l/m 0 min 0 min 0 W/m 12,9 km/h (3 Bft) 97,87 %
05.10.2021 23:52 12,4 C 11,7 C 10,6 C 88 % 1008,6 hPa 0,0 l/m 0 min 0 min 0 W/m 16,1 km/h (3 Bft) 97,83 %
05.10.2021 23:54 12,4 C 11,7 C 10,6 C 88 % 1008,5 hPa 0,0 l/m 0 min 0 min 0 W/m 6,4 km/h (2 Bft) 97,87 %
05.10.2021 23:56 12,4 C 11,7 C 10,6 C 88 % 1008,6 hPa 0,0 l/m 0 min 0 min 0 W/m 25,7 km/h (4 Bft) 97,87 %
05.10.2021 23:58 12,4 C 11,7 C 10,6 C 88 % 1008,6 hPa 0,0 l/m 0 min 0 min 0 W/m 12,9 km/h (3 Bft) 97,87 %
_ Min-Zeit 06:26 06:08 01:38 14:40 16:00 - - - - 00:08 04:06
Minimum _ 9,8 C 8,9 C 8,4 C 67 % 1003,8 hPa - - - - 3,2 km/h (1 Bft) 60,42 %
_ Max-Zeit 14:36 11:46 11:42 07:46 00:00 15:30 18:08 15:18 11:48 15:24 00:00
Maximum _ 18,4 C 21,1 C 20,0 C 94 % 1015,0 hPa 0,2 l/m 4 min 2 min 542 W/m 48,3 km/h
S-SW (6 Bft)
100,00 %
Durchschnitt _ 12,7 C 12,2 C 10,8 C 87 % 1008,3 hPa #3,6 l/m #1:27 h #2:18 h 95 W/m 13,1 km/h (3 Bft) 97,45 %
© 2021 W. Hausmann